Time,TemperatureF,DewpointF,PressureIn,WindDirection,WindDirectionDegrees,WindSpeedMPH,WindSpeedGustMPH,Humidity,HourlyPrecipIn,Conditions,Clouds,dailyrainin,SoftwareType,DateUTC
2013-04-08 00:01:00,63.0,47.0,29.72,SSE,156,8.7,8.7,56,0.00,,BKN090,0.00,VWS V14.01,2013-04-08 05:01:00,
2013-04-08 00:02:00,63.0,48.0,29.72,SSE,153,8.1,8.3,58,0.00,,-RA,0.00,VWS V14.01,2013-04-08 05:02:00,
2013-04-08 00:04:00,62.8,48.7,29.72,SSE,154,11.4,14.5,60,0.00,,-RA,0.00,VWS V14.01,2013-04-08 05:04:00,
2013-04-08 00:07:00,62.8,50.4,29.72,South,173,6.3,10.5,64,0.00,,-RA,0.00,VWS V14.01,2013-04-08 05:07:00,
2013-04-08 00:10:00,62.6,51.1,29.72,SSE,153,8.1,8.3,66,0.00,,-RA,0.00,VWS V14.01,2013-04-08 05:10:00,
2013-04-08 00:12:00,62.4,51.7,29.72,SSE,160,10.1,10.1,68,0.00,,-RA,0.00,VWS V14.01,2013-04-08 05:12:00,
2013-04-08 00:13:00,62.4,51.7,29.72,SSE,168,11.0,12.3,68,0.00,,-RA,0.00,VWS V14.01,2013-04-08 05:13:00,
2013-04-08 00:15:00,62.2,51.6,29.72,SE,142,10.1,11.0,68,0.00,,-RA,0.00,VWS V14.01,2013-04-08 05:15:00,
2013-04-08 00:17:00,62.2,52.3,29.72,SSE,167,10.1,10.1,70,0.00,,-RA,0.00,VWS V14.01,2013-04-08 05:17:00,
2013-04-08 00:18:00,62.2,52.3,29.72,SSW,204,11.0,11.0,70,0.00,,-RA,0.00,VWS V14.01,2013-04-08 05:18:00,
2013-04-08 00:21:00,62.2,52.3,29.72,SSE,167,8.1,8.1,70,0.00,,-RA,0.00,VWS V14.01,2013-04-08 05:21:00,
2013-04-08 00:22:00,62.1,52.2,29.72,South,177,3.6,10.1,70,0.00,,-RA,0.00,VWS V14.01,2013-04-08 05:22:00,
2013-04-08 00:23:00,62.1,52.2,29.72,South,173,9.2,10.1,70,0.00,,-RA,0.00,VWS V14.01,2013-04-08 05:23:00,
2013-04-08 00:27:00,62.1,52.2,29.75,SSE,168,6.7,8.1,70,0.00,,-RA,0.00,VWS V14.01,2013-04-08 05:27:00,
2013-04-08 00:28:00,62.1,52.2,29.75,South,170,6.3,6.7,70,0.00,,-RA,0.00,VWS V14.01,2013-04-08 05:28:00,
2013-04-08 00:29:00,62.1,52.2,29.75,SSE,168,5.8,6.3,70,0.00,,-RA,0.00,VWS V14.01,2013-04-08 05:29:00,
2013-04-08 00:33:00,61.9,52.8,29.75,SSE,152,5.4,6.3,72,0.04,,-RA,0.04,VWS V14.01,2013-04-08 05:33:00,
2013-04-08 00:34:00,61.7,52.6,29.75,SSE,150,5.8,7.6,72,0.04,,-RA,0.04,VWS V14.01,2013-04-08 05:34:00,
2013-04-08 00:35:00,61.7,52.6,29.75,South,182,6.3,6.3,72,0.04,,-RA,0.04,VWS V14.01,2013-04-08 05:35:00,
2013-04-08 00:39:00,61.5,53.2,29.72,SSE,155,4.0,4.0,74,0.04,,-RA,0.04,VWS V14.01,2013-04-08 05:39:00,
2013-04-08 00:40:00,61.5,53.2,29.72,SSE,154,2.2,3.1,74,0.04,,-RA,0.04,VWS V14.01,2013-04-08 05:40:00,
2013-04-08 00:44:00,61.3,53.0,29.72,SSE,154,0.0,0.0,74,0.04,,-RA,0.04,VWS V14.01,2013-04-08 05:44:00,
2013-04-08 00:45:00,61.3,53.0,29.72,SSE,154,0.0,0.0,74,0.04,,-RA,0.04,VWS V14.01,2013-04-08 05:45:00,
2013-04-08 00:46:00,61.2,52.8,29.72,SSE,154,0.0,0.0,74,0.04,,-RA,0.04,VWS V14.01,2013-04-08 05:46:00,
2013-04-08 00:49:00,61.2,53.5,29.72,SSE,154,2.7,3.6,76,0.04,,-RA,0.04,VWS V14.01,2013-04-08 05:49:00,
2013-04-08 00:50:00,61.2,52.8,29.72,SSE,158,2.7,3.1,74,0.04,,-RA,0.04,VWS V14.01,2013-04-08 05:50:00,
2013-04-08 00:51:00,61.2,53.5,29.72,SSE,165,3.1,3.1,76,0.08,,-RA,0.08,VWS V14.01,2013-04-08 05:51:00,
2013-04-08 00:54:00,61.0,53.4,29.72,SSE,164,2.2,2.2,76,0.16,,-RA,0.16,VWS V14.01,2013-04-08 05:54:00,
2013-04-08 00:55:00,61.0,52.7,29.72,SSE,165,0.0,2.2,74,0.16,,-RA,0.16,VWS V14.01,2013-04-08 05:55:00,
2013-04-08 00:56:00,61.0,52.7,29.72,SSE,165,0.0,0.0,74,0.16,,-RA,0.16,VWS V14.01,2013-04-08 05:56:00,
2013-04-08 00:58:00,60.8,52.5,29.72,SSE,165,0.0,0.0,74,0.20,,-RA,0.20,VWS V14.01,2013-04-08 05:58:00,
2013-04-08 00:59:00,60.6,53.0,29.72,SSE,165,0.0,0.0,76,0.24,,-RA,0.24,VWS V14.01,2013-04-08 05:59:00,
2013-04-08 01:01:00,60.4,53.6,29.72,SSE,165,0.0,0.0,78,0.28,,-RA,0.28,VWS V14.01,2013-04-08 06:01:00,
2013-04-08 01:02:00,60.4,53.6,29.72,SSE,165,0.0,0.0,78,0.28,,-RA,0.28,VWS V14.01,2013-04-08 06:02:00,
2013-04-08 01:03:00,60.3,53.4,29.72,SSE,166,4.0,4.0,78,0.31,,-RA,0.31,VWS V14.01,2013-04-08 06:03:00,
2013-04-08 01:05:00,60.1,53.9,29.72,West,268,5.4,5.4,80,0.31,,-RA,0.31,VWS V14.01,2013-04-08 06:05:00,
2013-04-08 01:06:00,60.1,55.9,29.72,WNW,291,5.8,5.8,86,0.31,,-RA,0.31,VWS V14.01,2013-04-08 06:06:00,
2013-04-08 01:07:00,60.1,57.8,29.72,WNW,283,4.0,5.8,92,0.35,,-RA,0.35,VWS V14.01,2013-04-08 06:07:00,
2013-04-08 01:08:00,59.9,58.8,29.72,WNW,283,5.8,5.8,96,0.35,,-RA,0.35,VWS V14.01,2013-04-08 06:08:00,
2013-04-08 01:10:00,59.7,59.2,29.75,WNW,285,3.6,4.9,98,0.35,,-RA,0.35,VWS V14.01,2013-04-08 06:10:00,
2013-04-08 01:11:00,59.7,59.7,29.75,WNW,292,5.4,5.4,100,0.35,,-RA,0.35,VWS V14.01,2013-04-08 06:11:00,
2013-04-08 01:12:00,59.7,59.7,29.75,WNW,301,6.3,6.3,100,0.35,,-RA,0.35,VWS V14.01,2013-04-08 06:12:00,
2013-04-08 01:14:00,59.4,59.4,29.75,WNW,303,2.7,4.9,100,0.35,,-RA,0.35,VWS V14.01,2013-04-08 06:14:00,
2013-04-08 01:15:00,59.2,59.2,29.75,WNW,303,4.0,4.0,100,0.35,,-RA,0.35,VWS V14.01,2013-04-08 06:15:00,
2013-04-08 01:17:00,59.0,59.0,29.75,NW,310,4.0,4.9,100,0.39,,-RA,0.39,VWS V14.01,2013-04-08 06:17:00,
2013-04-08 01:18:00,59.0,59.0,29.75,NW,310,4.0,4.0,100,0.39,,-RA,0.39,VWS V14.01,2013-04-08 06:18:00,
2013-04-08 01:20:00,58.8,58.8,29.75,NW,310,4.0,4.5,100,0.39,,-RA,0.39,VWS V14.01,2013-04-08 06:20:00,
2013-04-08 01:23:00,58.8,58.8,29.75,NW,310,4.0,4.0,100,0.39,,-RA,0.39,VWS V14.01,2013-04-08 06:23:00,
2013-04-08 01:25:00,58.6,58.6,29.75,NW,310,0.0,0.0,100,0.43,,-RA,0.43,VWS V14.01,2013-04-08 06:25:00,
2013-04-08 01:26:00,58.6,58.6,29.75,NW,310,0.0,0.0,100,0.43,,-RA,0.43,VWS V14.01,2013-04-08 06:26:00,
2013-04-08 01:28:00,58.5,58.5,29.75,NW,310,2.2,2.2,100,0.43,,-RA,0.43,VWS V14.01,2013-04-08 06:28:00,
2013-04-08 01:32:00,58.5,58.5,29.75,NW,310,0.0,0.0,100,0.43,,-RA,0.43,VWS V14.01,2013-04-08 06:32:00,
2013-04-08 01:33:00,58.5,58.5,29.75,NW,310,0.0,0.0,100,0.39,,-RA,0.43,VWS V14.01,2013-04-08 06:33:00,
2013-04-08 01:34:00,58.5,58.5,29.75,NW,310,0.0,0.0,100,0.39,,-RA,0.43,VWS V14.01,2013-04-08 06:34:00,
2013-04-08 01:37:00,58.5,58.5,29.75,NW,319,4.0,4.0,100,0.43,,-RA,0.47,VWS V14.01,2013-04-08 06:37:00,
2013-04-08 01:38:00,58.5,58.5,29.75,NW,320,3.6,4.0,100,0.43,,-RA,0.47,VWS V14.01,2013-04-08 06:38:00,
2013-04-08 01:39:00,58.5,58.5,29.72,North,353,4.0,4.0,100,0.43,,-RA,0.47,VWS V14.01,2013-04-08 06:39:00,
2013-04-08 01:42:00,58.5,58.5,29.72,East,82,3.1,6.3,100,0.43,,-RA,0.47,VWS V14.01,2013-04-08 06:42:00,
2013-04-08 01:44:00,58.5,58.5,29.72,East,81,4.0,5.4,100,0.43,,-RA,0.47,VWS V14.01,2013-04-08 06:44:00,
2013-04-08 01:45:00,58.5,58.5,29.72,East,81,4.9,5.8,100,0.43,,-RA,0.47,VWS V14.01,2013-04-08 06:45:00,
2013-04-08 01:47:00,58.5,58.5,29.72,East,81,4.0,5.8,100,0.43,,-RA,0.47,VWS V14.01,2013-04-08 06:47:00,
2013-04-08 01:49:00,58.6,58.6,29.72,East,80,3.6,3.6,100,0.47,,-RA,0.51,VWS V14.01,2013-04-08 06:49:00,
2013-04-08 01:50:00,58.6,58.6,29.72,East,80,5.4,5.4,100,0.47,,-RA,0.51,VWS V14.01,2013-04-08 06:50:00,
2013-04-08 01:51:00,58.6,58.6,29.72,East,81,5.4,5.8,100,0.47,,-RA,0.51,VWS V14.01,2013-04-08 06:51:00,
2013-04-08 01:53:00,58.6,58.6,29.72,East,79,4.0,6.3,100,0.47,,-RA,0.55,VWS V14.01,2013-04-08 06:53:00,
2013-04-08 01:55:00,58.8,58.8,29.70,East,84,4.0,8.3,100,0.39,,-RA,0.55,VWS V14.01,2013-04-08 06:55:00,
2013-04-08 01:56:00,58.8,58.8,29.70,East,84,0.0,4.0,100,0.43,,-RA,0.59,VWS V14.01,2013-04-08 06:56:00,
2013-04-08 01:57:00,58.8,58.8,29.70,East,84,2.7,2.7,100,0.43,,-RA,0.59,VWS V14.01,2013-04-08 06:57:00,
2013-04-08 01:58:00,58.8,58.8,29.70,East,84,3.1,4.0,100,0.43,,-RA,0.59,VWS V14.01,2013-04-08 06:58:00,
2013-04-08 02:00:00,58.8,58.8,29.70,East,83,0.0,4.0,100,0.35,,-RA,0.63,VWS V14.01,2013-04-08 07:00:00,
2013-04-08 02:02:00,58.8,58.8,29.70,East,83,2.7,3.1,100,0.35,, +RA,0.63,VWS V14.01,2013-04-08 07:02:00,
2013-04-08 02:03:00,59.0,59.0,29.70,ESE,123,4.9,4.9,100,0.31,, +RA,0.63,VWS V14.01,2013-04-08 07:03:00,
2013-04-08 02:05:00,59.2,59.2,29.70,SE,128,8.3,8.3,100,0.31,, +RA,0.63,VWS V14.01,2013-04-08 07:05:00,
2013-04-08 02:07:00,59.4,59.4,29.70,ESE,122,3.6,9.2,100,0.31,, +RA,0.63,VWS V14.01,2013-04-08 07:07:00,
2013-04-08 02:09:00,59.5,59.5,29.70,SE,133,8.3,8.3,100,0.28,, +RA,0.63,VWS V14.01,2013-04-08 07:09:00,
2013-04-08 02:10:00,59.7,59.7,29.70,ESE,109,8.1,8.3,100,0.28,, +RA,0.63,VWS V14.01,2013-04-08 07:10:00,
2013-04-08 02:11:00,59.7,59.7,29.70,ESE,115,11.0,11.0,100,0.28,, +RA,0.63,VWS V14.01,2013-04-08 07:11:00,
2013-04-08 02:13:00,59.7,59.7,29.70,ESE,117,3.1,8.1,100,0.28,, +RA,0.63,VWS V14.01,2013-04-08 07:13:00,
2013-04-08 02:14:00,59.7,59.7,29.70,ESE,123,8.7,8.7,100,0.28,, +RA,0.63,VWS V14.01,2013-04-08 07:14:00,
2013-04-08 02:17:00,59.7,59.7,29.70,SE,137,8.7,10.1,100,0.24,, +RA,0.63,VWS V14.01,2013-04-08 07:17:00,
2013-04-08 02:18:00,59.7,59.7,29.70,SE,127,10.1,10.5,100,0.24,, +RA,0.63,VWS V14.01,2013-04-08 07:18:00,
2013-04-08 02:19:00,59.9,59.9,29.70,SE,124,8.3,11.0,100,0.24,, +RA,0.63,VWS V14.01,2013-04-08 07:19:00,
2013-04-08 02:23:00,59.9,59.9,29.70,SE,139,8.7,10.5,100,0.24,, +RA,0.63,VWS V14.01,2013-04-08 07:23:00,
2013-04-08 02:25:00,59.7,59.7,29.67,ESE,122,11.0,11.0,100,0.24,, +RA,0.63,VWS V14.01,2013-04-08 07:25:00,
2013-04-08 02:28:00,59.7,59.7,29.67,SSE,147,7.6,7.6,100,0.20,, +RA,0.63,VWS V14.01,2013-04-08 07:28:00,
2013-04-08 02:30:00,59.7,59.7,29.67,South,177,9.6,12.3,100,0.20,, +RA,0.63,VWS V14.01,2013-04-08 07:30:00,
2013-04-08 02:31:00,59.7,59.7,29.67,SE,130,8.7,10.5,100,0.20,, +RA,0.63,VWS V14.01,2013-04-08 07:31:00,
2013-04-08 02:33:00,59.7,59.7,29.67,SSE,165,9.6,10.5,100,0.20,,-RA,0.63,VWS V14.01,2013-04-08 07:33:00,
2013-04-08 02:36:00,59.9,59.9,29.67,SSE,150,8.7,12.3,100,0.20,,-RA,0.63,VWS V14.01,2013-04-08 07:36:00,
2013-04-08 02:39:00,59.9,59.9,29.64,SSE,160,9.6,12.8,100,0.16,,-RA,0.63,VWS V14.01,2013-04-08 07:39:00,
2013-04-08 02:41:00,59.9,59.9,29.64,South,175,9.6,9.6,100,0.16,,-RA,0.63,VWS V14.01,2013-04-08 07:41:00,
2013-04-08 02:43:00,59.9,59.9,29.64,SE,135,8.3,10.1,100,0.16,,-RA,0.63,VWS V14.01,2013-04-08 07:43:00,
2013-04-08 02:44:00,59.9,59.9,29.64,SSE,158,8.7,8.7,100,0.16,,-RA,0.63,VWS V14.01,2013-04-08 07:44:00,
2013-04-08 02:49:00,59.9,59.9,29.64,South,174,7.6,11.4,100,0.12,,-RA,0.63,VWS V14.01,2013-04-08 07:49:00,
2013-04-08 02:50:00,59.9,59.9,29.64,South,171,10.5,13.2,100,0.12,,-RA,0.63,VWS V14.01,2013-04-08 07:50:00,
2013-04-08 02:54:00,60.1,60.1,29.64,South,172,11.0,11.0,100,0.12,,-RA,0.67,VWS V14.01,2013-04-08 07:54:00,
2013-04-08 02:55:00,60.1,60.1,29.64,South,172,15.4,15.4,100,0.12,,-RA,0.67,VWS V14.01,2013-04-08 07:55:00,
2013-04-08 02:59:00,60.3,60.3,29.64,SSW,192,14.5,14.5,100,0.04,,-RA,0.67,VWS V14.01,2013-04-08 07:59:00,
2013-04-08 03:00:00,60.3,60.3,29.64,South,180,16.3,16.3,100,0.04,,-RA,0.67,VWS V14.01,2013-04-08 08:00:00,
2013-04-08 03:01:00,60.3,60.3,29.64,South,184,15.0,16.3,100,0.04,,-RA,0.67,VWS V14.01,2013-04-08 08:01:00,
2013-04-08 03:04:00,60.4,60.4,29.64,South,172,17.0,17.0,100,0.08,,-RA,0.71,VWS V14.01,2013-04-08 08:04:00,
2013-04-08 03:05:00,60.4,60.4,29.64,South,181,22.8,24.2,100,0.08,,-RA,0.71,VWS V14.01,2013-04-08 08:05:00,
2013-04-08 03:06:00,60.4,60.4,29.64,SSE,163,29.8,29.8,100,0.08,,-RA,0.71,VWS V14.01,2013-04-08 08:06:00,
2013-04-08 03:10:00,60.4,60.4,29.64,South,181,14.5,20.1,100,0.12,,-RA,0.75,VWS V14.01,2013-04-08 08:10:00,
2013-04-08 03:11:00,60.4,60.4,29.64,SSE,168,14.5,18.8,100,0.12,,-RA,0.75,VWS V14.01,2013-04-08 08:11:00,
2013-04-08 03:12:00,60.4,60.4,29.64,South,172,17.0,18.3,100,0.12,,-RA,0.75,VWS V14.01,2013-04-08 08:12:00,
2013-04-08 03:15:00,60.1,57.8,29.64,South,175,23.7,25.5,92,0.12,,-RA,0.75,VWS V14.01,2013-04-08 08:15:00,
2013-04-08 03:16:00,60.1,57.1,29.64,South,187,26.6,26.6,90,0.12,,-RA,0.75,VWS V14.01,2013-04-08 08:16:00,
2013-04-08 03:18:00,60.3,57.9,29.64,South,171,32.0,32.0,92,0.12,,-RA,0.75,VWS V14.01,2013-04-08 08:18:00,
2013-04-08 03:20:00,60.3,57.3,29.64,South,182,19.2,24.2,90,0.12,,-RA,0.75,VWS V14.01,2013-04-08 08:20:00,
2013-04-08 03:22:00,60.1,55.9,29.64,SSW,199,15.0,17.9,86,0.12,,-RA,0.75,VWS V14.01,2013-04-08 08:22:00,
2013-04-08 03:24:00,59.9,53.7,29.64,South,185,23.7,23.7,80,0.12,,-RA,0.75,VWS V14.01,2013-04-08 08:24:00,
2013-04-08 03:27:00,60.1,51.8,29.61,South,176,25.1,26.2,74,0.12,,-RA,0.75,VWS V14.01,2013-04-08 08:27:00,
2013-04-08 03:28:00,60.3,52.0,29.61,South,190,19.2,25.1,74,0.12,,-RA,0.75,VWS V14.01,2013-04-08 08:28:00,
2013-04-08 03:29:00,60.3,51.2,29.61,SSW,194,25.1,25.7,72,0.12,,-RA,0.75,VWS V14.01,2013-04-08 08:29:00,
2013-04-08 03:32:00,60.1,51.0,29.61,SSW,206,28.9,28.9,72,0.12,,,0.75,VWS V14.01,2013-04-08 08:32:00,
2013-04-08 03:33:00,60.1,51.0,29.61,South,180,21.0,28.9,72,0.12,,,0.75,VWS V14.01,2013-04-08 08:33:00,
2013-04-08 03:34:00,60.1,51.0,29.61,SW,217,19.2,24.6,72,0.12,,,0.75,VWS V14.01,2013-04-08 08:34:00,
2013-04-08 03:35:00,60.1,50.3,29.61,SSW,196,18.8,19.2,70,0.12,,,0.75,VWS V14.01,2013-04-08 08:35:00,
2013-04-08 03:37:00,60.1,50.3,29.61,SSW,210,17.0,18.8,70,0.12,,,0.75,VWS V14.01,2013-04-08 08:37:00,
2013-04-08 03:38:00,60.1,50.3,29.61,SW,234,15.0,15.0,70,0.12,,,0.75,VWS V14.01,2013-04-08 08:38:00,
2013-04-08 03:39:00,59.9,50.1,29.64,SSW,209,16.3,16.3,70,0.12,,,0.75,VWS V14.01,2013-04-08 08:39:00,
2013-04-08 03:40:00,59.9,50.1,29.64,SW,232,15.4,20.6,70,0.12,,,0.75,VWS V14.01,2013-04-08 08:40:00,
2013-04-08 03:42:00,59.9,50.1,29.64,SW,231,17.4,19.2,70,0.12,,,0.75,VWS V14.01,2013-04-08 08:42:00,
2013-04-08 03:43:00,59.9,50.1,29.64,SW,229,11.9,13.2,70,0.12,,,0.75,VWS V14.01,2013-04-08 08:43:00,
2013-04-08 03:45:00,59.7,49.9,29.64,SW,232,11.0,12.8,70,0.12,,,0.75,VWS V14.01,2013-04-08 08:45:00,
2013-04-08 03:47:00,59.4,49.6,29.64,SW,223,11.0,11.0,70,0.12,,,0.75,VWS V14.01,2013-04-08 08:47:00,
2013-04-08 03:49:00,59.4,49.6,29.64,SW,226,7.6,11.0,70,0.12,,,0.75,VWS V14.01,2013-04-08 08:49:00,
2013-04-08 03:50:00,59.2,49.4,29.64,SSW,208,8.7,8.7,70,0.12,,,0.75,VWS V14.01,2013-04-08 08:50:00,
2013-04-08 03:52:00,59.0,49.2,29.64,SW,222,10.5,11.0,70,0.08,,,0.75,VWS V14.01,2013-04-08 08:52:00,
2013-04-08 03:54:00,58.8,49.1,29.67,SW,227,10.5,10.5,70,0.08,,,0.75,VWS V14.01,2013-04-08 08:54:00,
2013-04-08 03:55:00,58.6,48.9,29.67,WSW,238,10.5,10.5,70,0.08,,,0.75,VWS V14.01,2013-04-08 08:55:00,
2013-04-08 03:57:00,58.5,48.7,29.67,SW,230,10.5,13.2,70,0.08,,,0.75,VWS V14.01,2013-04-08 08:57:00,
2013-04-08 03:59:00,58.5,48.7,29.67,SW,221,8.7,8.7,70,0.08,,,0.75,VWS V14.01,2013-04-08 08:59:00,
2013-04-08 04:01:00,58.3,48.5,29.67,SW,221,12.3,12.3,70,0.08,,,0.75,VWS V14.01,2013-04-08 09:01:00,
2013-04-08 04:02:00,58.1,48.4,29.67,SW,233,12.3,12.3,70,0.08,,-RA,0.75,VWS V14.01,2013-04-08 09:02:00,
2013-04-08 04:04:00,57.7,48.0,29.67,SW,221,11.0,11.0,70,0.04,,-RA,0.75,VWS V14.01,2013-04-08 09:04:00,
2013-04-08 04:05:00,57.7,48.0,29.67,SW,234,10.1,11.0,70,0.04,,-RA,0.75,VWS V14.01,2013-04-08 09:05:00,
2013-04-08 04:07:00,57.6,47.9,29.67,SSW,206,16.3,16.3,70,0.04,,-RA,0.75,VWS V14.01,2013-04-08 09:07:00,
2013-04-08 04:10:00,57.2,47.5,29.67,SW,228,12.8,12.8,70,0.00,,-RA,0.75,VWS V14.01,2013-04-08 09:10:00,
2013-04-08 04:12:00,57.2,47.5,29.67,SW,220,11.0,11.0,70,0.00,,-RA,0.75,VWS V14.01,2013-04-08 09:12:00,
2013-04-08 04:15:00,56.8,47.9,29.67,SW,230,8.7,10.1,72,0.00,,-RA,0.75,VWS V14.01,2013-04-08 09:15:00,
2013-04-08 04:17:00,56.7,47.8,29.67,SW,231,8.7,10.1,72,0.00,,-RA,0.75,VWS V14.01,2013-04-08 09:17:00,
2013-04-08 04:19:00,56.5,47.6,29.67,SW,229,10.1,12.3,72,0.00,,-RA,0.75,VWS V14.01,2013-04-08 09:19:00,
2013-04-08 04:20:00,56.5,47.6,29.67,SW,232,7.6,8.1,72,0.00,,-RA,0.75,VWS V14.01,2013-04-08 09:20:00,
2013-04-08 04:22:00,56.3,48.1,29.67,SSW,206,8.7,8.7,74,0.00,,-RA,0.75,VWS V14.01,2013-04-08 09:22:00,
2013-04-08 04:25:00,56.1,48.0,29.67,SW,218,11.0,11.9,74,0.00,,-RA,0.75,VWS V14.01,2013-04-08 09:25:00,
2013-04-08 04:26:00,56.1,48.0,29.67,SW,223,13.2,16.3,74,0.00,,-RA,0.75,VWS V14.01,2013-04-08 09:26:00,
2013-04-08 04:27:00,56.1,48.0,29.67,SW,233,15.0,15.0,74,0.00,,-RA,0.75,VWS V14.01,2013-04-08 09:27:00,
2013-04-08 04:28:00,56.1,48.7,29.67,SW,217,10.5,12.3,76,0.00,,-RA,0.75,VWS V14.01,2013-04-08 09:28:00,
2013-04-08 04:31:00,55.9,48.5,29.67,SW,216,10.5,14.1,76,0.00,,-RA,0.75,VWS V14.01,2013-04-08 09:31:00,
2013-04-08 04:32:00,55.9,48.5,29.67,SW,234,10.5,10.5,76,0.00,,OVC110,0.75,VWS V14.01,2013-04-08 09:32:00,
2013-04-08 04:33:00,55.9,48.5,29.67,WSW,240,7.6,11.0,76,0.00,,OVC110,0.75,VWS V14.01,2013-04-08 09:33:00,
2013-04-08 04:34:00,55.9,48.5,29.67,SW,227,8.7,8.7,76,0.00,,OVC110,0.75,VWS V14.01,2013-04-08 09:34:00,
2013-04-08 04:37:00,55.8,49.0,29.67,SW,226,15.0,15.0,78,0.00,,OVC110,0.75,VWS V14.01,2013-04-08 09:37:00,
2013-04-08 04:38:00,55.8,49.0,29.67,SW,231,12.8,15.4,78,0.00,,OVC110,0.75,VWS V14.01,2013-04-08 09:38:00,
2013-04-08 04:41:00,55.8,48.3,29.67,SW,223,11.0,14.5,76,0.00,,OVC110,0.75,VWS V14.01,2013-04-08 09:41:00,
2013-04-08 04:42:00,55.8,48.3,29.67,SW,222,15.0,15.0,76,0.00,,OVC110,0.75,VWS V14.01,2013-04-08 09:42:00,
2013-04-08 04:43:00,55.8,48.3,29.67,SW,225,15.4,15.4,76,0.00,,OVC110,0.75,VWS V14.01,2013-04-08 09:43:00,
2013-04-08 04:46:00,55.8,47.6,29.67,SW,224,10.1,10.1,74,0.00,,OVC110,0.75,VWS V14.01,2013-04-08 09:46:00,
2013-04-08 04:48:00,55.8,46.9,29.67,SW,234,11.9,13.2,72,0.00,,OVC110,0.75,VWS V14.01,2013-04-08 09:48:00,
2013-04-08 04:49:00,55.8,46.9,29.67,SW,234,13.2,14.1,72,0.00,,OVC110,0.75,VWS V14.01,2013-04-08 09:49:00,
2013-04-08 04:52:00,55.6,46.7,29.67,SW,216,12.3,12.8,72,0.00,,OVC110,0.75,VWS V14.01,2013-04-08 09:52:00,
2013-04-08 04:53:00,55.6,46.7,29.67,SW,236,12.8,15.4,72,0.00,,OVC110,0.75,VWS V14.01,2013-04-08 09:53:00,
2013-04-08 04:54:00,55.6,46.7,29.67,SW,231,14.5,14.5,72,0.00,,OVC110,0.75,VWS V14.01,2013-04-08 09:54:00,
2013-04-08 04:55:00,55.6,46.7,29.67,SW,226,12.3,14.5,72,0.00,,OVC110,0.75,VWS V14.01,2013-04-08 09:55:00,
2013-04-08 04:57:00,55.6,46.7,29.67,SW,225,11.0,12.3,72,0.00,,OVC110,0.75,VWS V14.01,2013-04-08 09:57:00,
2013-04-08 04:58:00,55.4,46.5,29.67,SW,230,10.1,10.1,72,0.00,,OVC110,0.75,VWS V14.01,2013-04-08 09:58:00,
2013-04-08 05:00:00,55.4,46.5,29.67,SSW,202,13.2,13.2,72,0.00,,OVC110,0.75,VWS V14.01,2013-04-08 10:00:00,
2013-04-08 05:02:00,55.2,46.4,29.67,SSW,200,13.2,13.2,72,0.00,,CLR,0.75,VWS V14.01,2013-04-08 10:02:00,
2013-04-08 05:04:00,55.2,46.4,29.67,SW,214,10.5,11.9,72,0.00,,CLR,0.75,VWS V14.01,2013-04-08 10:04:00,
2013-04-08 05:05:00,55.0,46.2,29.67,SW,224,9.2,11.0,72,0.00,,CLR,0.75,VWS V14.01,2013-04-08 10:05:00,
2013-04-08 05:06:00,55.0,46.2,29.67,SW,217,10.1,11.0,72,0.00,,CLR,0.75,VWS V14.01,2013-04-08 10:06:00,
2013-04-08 05:07:00,55.0,46.2,29.67,SW,215,11.0,12.8,72,0.00,,CLR,0.75,VWS V14.01,2013-04-08 10:07:00,
2013-04-08 05:09:00,54.9,46.7,29.67,SW,221,13.2,15.0,74,0.00,,CLR,0.75,VWS V14.01,2013-04-08 10:09:00,
2013-04-08 05:11:00,54.9,46.7,29.67,SSW,211,12.8,12.8,74,0.00,,CLR,0.75,VWS V14.01,2013-04-08 10:11:00,
2013-04-08 05:12:00,54.9,46.7,29.67,WSW,245,11.0,17.4,74,0.00,,CLR,0.75,VWS V14.01,2013-04-08 10:12:00,
2013-04-08 05:14:00,54.9,46.7,29.67,SSW,208,11.0,11.0,74,0.00,,CLR,0.75,VWS V14.01,2013-04-08 10:14:00,
2013-04-08 05:16:00,54.7,46.6,29.67,SW,231,11.0,12.8,74,0.00,,CLR,0.75,VWS V14.01,2013-04-08 10:16:00,
2013-04-08 05:17:00,54.7,46.6,29.67,SW,235,10.5,10.5,74,0.00,,CLR,0.75,VWS V14.01,2013-04-08 10:17:00,
2013-04-08 05:20:00,54.5,47.1,29.67,SW,219,15.0,17.4,76,0.00,,CLR,0.75,VWS V14.01,2013-04-08 10:20:00,
2013-04-08 05:21:00,54.5,47.1,29.67,SSW,197,10.5,15.0,76,0.00,,CLR,0.75,VWS V14.01,2013-04-08 10:21:00,
2013-04-08 05:22:00,54.5,47.1,29.67,SW,225,12.3,13.2,76,0.00,,CLR,0.75,VWS V14.01,2013-04-08 10:22:00,
2013-04-08 05:25:00,54.5,47.1,29.67,SW,229,12.8,12.8,76,0.00,,CLR,0.75,VWS V14.01,2013-04-08 10:25:00,
2013-04-08 05:27:00,54.5,47.1,29.67,SSW,212,11.9,13.2,76,0.00,,CLR,0.75,VWS V14.01,2013-04-08 10:27:00,
2013-04-08 05:28:00,54.5,47.1,29.67,SW,221,12.8,13.2,76,0.00,,CLR,0.75,VWS V14.01,2013-04-08 10:28:00,
2013-04-08 05:30:00,54.5,47.8,29.67,SSW,203,12.8,12.8,78,0.00,,CLR,0.75,VWS V14.01,2013-04-08 10:30:00,
2013-04-08 05:31:00,54.5,47.8,29.67,SSW,208,12.8,12.8,78,0.00,,CLR,0.75,VWS V14.01,2013-04-08 10:31:00,
2013-04-08 05:32:00,54.5,47.8,29.67,SW,221,12.8,13.6,78,0.00,,CLR,0.75,VWS V14.01,2013-04-08 10:32:00,
2013-04-08 05:34:00,54.5,47.8,29.67,SW,223,10.1,10.1,78,0.00,,CLR,0.75,VWS V14.01,2013-04-08 10:34:00,
2013-04-08 05:35:00,54.5,47.8,29.67,SSW,206,14.5,15.0,78,0.00,,CLR,0.75,VWS V14.01,2013-04-08 10:35:00,
2013-04-08 05:36:00,54.5,47.8,29.67,SSW,206,15.0,15.0,78,0.00,,CLR,0.75,VWS V14.01,2013-04-08 10:36:00,
2013-04-08 05:37:00,54.5,47.8,29.67,SSW,202,10.5,12.8,78,0.00,,CLR,0.75,VWS V14.01,2013-04-08 10:37:00,
2013-04-08 05:40:00,54.5,48.5,29.67,SW,229,11.4,12.3,80,0.00,,CLR,0.75,VWS V14.01,2013-04-08 10:40:00,
2013-04-08 05:41:00,54.5,48.5,29.67,SSW,213,15.0,15.0,80,0.00,,CLR,0.75,VWS V14.01,2013-04-08 10:41:00,
2013-04-08 05:42:00,54.5,48.5,29.67,SSW,201,12.8,13.2,80,0.00,,CLR,0.75,VWS V14.01,2013-04-08 10:42:00,
2013-04-08 05:44:00,54.5,48.5,29.67,SW,221,13.2,15.4,80,0.00,,CLR,0.75,VWS V14.01,2013-04-08 10:44:00,
2013-04-08 05:45:00,54.5,48.5,29.67,SW,222,12.8,13.6,80,0.00,,CLR,0.75,VWS V14.01,2013-04-08 10:45:00,
2013-04-08 05:48:00,54.5,49.1,29.67,SW,220,11.0,14.1,82,0.00,,CLR,0.75,VWS V14.01,2013-04-08 10:48:00,
2013-04-08 05:49:00,54.5,49.1,29.67,SSW,202,10.5,11.0,82,0.00,,CLR,0.75,VWS V14.01,2013-04-08 10:49:00,
2013-04-08 05:50:00,54.5,49.1,29.67,South,189,10.5,12.3,82,0.00,,CLR,0.75,VWS V14.01,2013-04-08 10:50:00,
2013-04-08 05:53:00,54.3,49.6,29.67,SW,219,12.3,12.8,84,0.00,,CLR,0.75,VWS V14.01,2013-04-08 10:53:00,
2013-04-08 05:54:00,54.5,49.8,29.67,SSW,207,11.9,12.8,84,0.00,,CLR,0.75,VWS V14.01,2013-04-08 10:54:00,
2013-04-08 05:55:00,54.5,49.8,29.67,SW,226,12.8,12.8,84,0.00,,CLR,0.75,VWS V14.01,2013-04-08 10:55:00,
2013-04-08 05:57:00,54.5,49.8,29.67,SSW,198,11.0,13.6,84,0.00,,CLR,0.75,VWS V14.01,2013-04-08 10:57:00,
2013-04-08 05:58:00,54.5,49.8,29.67,SW,219,13.2,13.2,84,0.00,,CLR,0.75,VWS V14.01,2013-04-08 10:58:00,
2013-04-08 05:59:00,54.5,50.4,29.67,SSW,213,12.8,12.8,86,0.00,,CLR,0.75,VWS V14.01,2013-04-08 10:59:00,
2013-04-08 06:00:00,54.5,50.4,29.67,SSW,201,11.0,11.0,86,0.00,,CLR,0.75,VWS V14.01,2013-04-08 11:00:00,
2013-04-08 06:02:00,54.5,50.4,29.67,SSW,211,13.2,13.6,86,0.00,,FEW055,0.75,VWS V14.01,2013-04-08 11:02:00,
2013-04-08 06:04:00,54.5,51.0,29.67,SW,223,12.8,15.4,88,0.00,,FEW055,0.75,VWS V14.01,2013-04-08 11:04:00,
2013-04-08 06:05:00,54.5,51.0,29.67,SW,223,10.1,11.0,88,0.00,,FEW055,0.75,VWS V14.01,2013-04-08 11:05:00,
2013-04-08 06:06:00,54.5,51.0,29.67,SW,226,11.0,12.3,88,0.00,,FEW055,0.75,VWS V14.01,2013-04-08 11:06:00,
2013-04-08 06:07:00,54.5,51.0,29.67,SW,234,10.1,10.1,88,0.00,,FEW055,0.75,VWS V14.01,2013-04-08 11:07:00,
2013-04-08 06:09:00,54.5,51.0,29.70,SSW,204,8.7,8.7,88,0.00,,FEW055,0.75,VWS V14.01,2013-04-08 11:09:00,
2013-04-08 06:11:00,54.7,51.2,29.70,SW,223,12.3,12.3,88,0.00,,FEW055,0.75,VWS V14.01,2013-04-08 11:11:00,
2013-04-08 06:12:00,54.7,51.2,29.70,SW,215,11.0,11.4,88,0.00,,FEW055,0.75,VWS V14.01,2013-04-08 11:12:00,
2013-04-08 06:13:00,54.7,51.2,29.70,SSW,211,11.9,12.8,88,0.00,,FEW055,0.75,VWS V14.01,2013-04-08 11:13:00,
2013-04-08 06:14:00,54.7,51.2,29.70,SW,220,13.2,13.2,88,0.00,,FEW055,0.75,VWS V14.01,2013-04-08 11:14:00,
2013-04-08 06:17:00,54.9,51.4,29.70,SSW,213,10.1,13.2,88,0.00,,FEW055,0.75,VWS V14.01,2013-04-08 11:17:00,
2013-04-08 06:18:00,54.9,51.4,29.70,SSW,208,8.7,11.0,88,0.00,,FEW055,0.75,VWS V14.01,2013-04-08 11:18:00,
2013-04-08 06:20:00,54.9,51.4,29.70,SSW,197,11.0,12.3,88,0.00,,FEW055,0.75,VWS V14.01,2013-04-08 11:20:00,
2013-04-08 06:22:00,54.9,51.4,29.70,SW,233,8.3,12.8,88,0.00,,FEW055,0.75,VWS V14.01,2013-04-08 11:22:00,
2013-04-08 06:23:00,54.9,51.4,29.70,SW,232,13.2,13.2,88,0.00,,FEW055,0.75,VWS V14.01,2013-04-08 11:23:00,
2013-04-08 06:25:00,54.9,51.4,29.70,SW,225,11.0,11.0,88,0.00,,FEW055,0.75,VWS V14.01,2013-04-08 11:25:00,
2013-04-08 06:29:00,54.9,52.0,29.70,SW,230,10.1,10.1,90,0.00,,FEW055,0.75,VWS V14.01,2013-04-08 11:29:00,
2013-04-08 06:32:00,54.9,52.0,29.70,WSW,237,12.3,12.3,90,0.00,,FEW055,0.75,VWS V14.01,2013-04-08 11:32:00,
2013-04-08 06:34:00,55.0,52.2,29.70,SW,226,8.3,8.3,90,0.00,,FEW055,0.75,VWS V14.01,2013-04-08 11:34:00,
2013-04-08 06:35:00,55.0,52.2,29.70,SSW,207,8.3,8.3,90,0.00,,FEW055,0.75,VWS V14.01,2013-04-08 11:35:00,
2013-04-08 06:36:00,55.0,52.2,29.70,SW,214,11.4,11.4,90,0.00,,FEW055,0.75,VWS V14.01,2013-04-08 11:36:00,
2013-04-08 06:37:00,55.0,52.2,29.70,SW,221,11.4,13.6,90,0.00,,FEW055,0.75,VWS V14.01,2013-04-08 11:37:00,
2013-04-08 06:40:00,55.0,52.2,29.70,SW,223,9.2,12.8,90,0.00,,FEW055,0.75,VWS V14.01,2013-04-08 11:40:00,
2013-04-08 06:41:00,55.2,52.3,29.70,SW,220,10.5,10.5,90,0.00,,FEW055,0.75,VWS V14.01,2013-04-08 11:41:00,
2013-04-08 06:42:00,55.2,52.3,29.70,SW,217,9.6,10.5,90,0.00,,FEW055,0.75,VWS V14.01,2013-04-08 11:42:00,
2013-04-08 06:45:00,55.2,52.3,29.70,SSW,207,10.1,10.1,90,0.00,,FEW055,0.75,VWS V14.01,2013-04-08 11:45:00,
2013-04-08 06:46:00,55.2,52.3,29.70,SW,226,8.7,11.0,90,0.00,,FEW055,0.75,VWS V14.01,2013-04-08 11:46:00,
2013-04-08 06:47:00,55.2,52.3,29.70,SW,229,8.3,8.3,90,0.00,,FEW055,0.75,VWS V14.01,2013-04-08 11:47:00,
2013-04-08 06:51:00,55.4,52.5,29.70,SW,222,8.7,10.5,90,0.00,,FEW055,0.75,VWS V14.01,2013-04-08 11:51:00,
2013-04-08 06:53:00,55.4,52.5,29.70,SW,221,7.6,8.7,90,0.00,,FEW055,0.75,VWS V14.01,2013-04-08 11:53:00,
2013-04-08 06:56:00,55.6,52.7,29.72,SSW,213,8.7,13.2,90,0.00,,FEW055,0.75,VWS V14.01,2013-04-08 11:56:00,
2013-04-08 06:58:00,55.6,52.7,29.72,SW,229,11.0,12.8,90,0.00,,FEW055,0.75,VWS V14.01,2013-04-08 11:58:00,
2013-04-08 06:59:00,55.8,52.9,29.72,SW,218,11.0,11.0,90,0.00,,FEW055,0.75,VWS V14.01,2013-04-08 11:59:00,
2013-04-08 07:03:00,55.9,53.0,29.72,SW,231,8.7,10.5,90,0.00,,OVC048,0.75,VWS V14.01,2013-04-08 12:03:00,
2013-04-08 07:04:00,55.9,53.0,29.72,WSW,242,7.6,7.6,90,0.00,,OVC048,0.75,VWS V14.01,2013-04-08 12:04:00,
2013-04-08 07:05:00,55.9,53.0,29.72,SW,235,6.3,8.1,90,0.00,,OVC048,0.75,VWS V14.01,2013-04-08 12:05:00,
2013-04-08 07:09:00,55.9,52.4,29.72,SW,232,8.7,8.7,88,0.00,,OVC048,0.75,VWS V14.01,2013-04-08 12:09:00,
2013-04-08 07:10:00,56.1,52.6,29.72,WSW,240,8.1,8.1,88,0.00,,OVC048,0.75,VWS V14.01,2013-04-08 12:10:00,
2013-04-08 07:11:00,56.1,52.6,29.72,SW,224,7.6,8.1,88,0.00,,OVC048,0.75,VWS V14.01,2013-04-08 12:11:00,
2013-04-08 07:14:00,56.1,52.6,29.72,West,260,4.0,4.0,88,0.00,,OVC048,0.75,VWS V14.01,2013-04-08 12:14:00,
2013-04-08 07:15:00,56.1,52.6,29.72,West,261,4.0,4.0,88,0.00,,OVC048,0.75,VWS V14.01,2013-04-08 12:15:00,
2013-04-08 07:16:00,56.1,52.6,29.72,WNW,290,5.8,5.8,88,0.00,,OVC048,0.75,VWS V14.01,2013-04-08 12:16:00,
2013-04-08 07:21:00,56.3,52.8,29.72,West,270,3.6,4.0,88,0.00,,OVC048,0.75,VWS V14.01,2013-04-08 12:21:00,
2013-04-08 07:22:00,56.3,52.8,29.72,WNW,299,3.6,4.9,88,0.00,,OVC048,0.75,VWS V14.01,2013-04-08 12:22:00,
2013-04-08 07:23:00,56.3,52.8,29.72,NW,307,5.8,5.8,88,0.00,,OVC048,0.75,VWS V14.01,2013-04-08 12:23:00,
2013-04-08 07:26:00,56.3,52.8,29.75,NW,317,2.2,2.7,88,0.00,,OVC048,0.75,VWS V14.01,2013-04-08 12:26:00,
2013-04-08 07:27:00,56.3,52.8,29.75,NW,316,2.7,2.7,88,0.00,,OVC048,0.75,VWS V14.01,2013-04-08 12:27:00,
2013-04-08 07:29:00,56.5,53.0,29.75,WSW,254,4.0,4.0,88,0.00,,OVC048,0.75,VWS V14.01,2013-04-08 12:29:00,
2013-04-08 07:32:00,56.5,53.0,29.75,West,269,4.9,4.9,88,0.00,,OVC048,0.75,VWS V14.01,2013-04-08 12:32:00,
2013-04-08 07:35:00,56.5,53.0,29.75,WSW,240,4.0,4.0,88,0.00,,OVC048,0.75,VWS V14.01,2013-04-08 12:35:00,
2013-04-08 07:36:00,56.5,53.0,29.75,SW,234,4.9,5.8,88,0.00,,OVC048,0.75,VWS V14.01,2013-04-08 12:36:00,
2013-04-08 07:37:00,56.5,53.0,29.75,WSW,240,3.6,4.0,88,0.00,,OVC048,0.75,VWS V14.01,2013-04-08 12:37:00,
2013-04-08 07:38:00,56.5,53.0,29.75,WSW,256,5.8,5.8,88,0.00,,OVC048,0.75,VWS V14.01,2013-04-08 12:38:00,
2013-04-08 07:40:00,56.5,53.0,29.75,WSW,248,6.3,6.3,88,0.00,,OVC048,0.75,VWS V14.01,2013-04-08 12:40:00,
2013-04-08 07:41:00,56.5,53.0,29.75,WSW,244,4.0,5.4,88,0.00,,OVC048,0.75,VWS V14.01,2013-04-08 12:41:00,
2013-04-08 07:43:00,56.7,53.2,29.75,West,273,4.0,4.0,88,0.00,,OVC048,0.75,VWS V14.01,2013-04-08 12:43:00,
2013-04-08 07:44:00,56.7,53.2,29.75,NW,311,5.8,5.8,88,0.00,,OVC048,0.75,VWS V14.01,2013-04-08 12:44:00,
2013-04-08 07:46:00,56.7,53.8,29.75,NW,317,6.7,7.2,90,0.00,,OVC048,0.75,VWS V14.01,2013-04-08 12:46:00,
2013-04-08 07:48:00,56.7,53.8,29.75,NW,317,3.6,3.6,90,0.00,,OVC048,0.75,VWS V14.01,2013-04-08 12:48:00,
2013-04-08 07:49:00,56.5,53.6,29.75,NW,317,4.0,4.0,90,0.00,,OVC048,0.75,VWS V14.01,2013-04-08 12:49:00,
2013-04-08 07:52:00,56.3,54.0,29.75,NW,315,2.7,3.6,92,0.00,,OVC048,0.75,VWS V14.01,2013-04-08 12:52:00,
2013-04-08 07:53:00,56.3,54.0,29.75,NW,315,2.7,3.6,92,0.00,,OVC048,0.75,VWS V14.01,2013-04-08 12:53:00,
2013-04-08 07:55:00,56.3,54.0,29.75,NW,315,3.1,3.1,92,0.00,,OVC048,0.75,VWS V14.01,2013-04-08 12:55:00,
2013-04-08 07:57:00,56.3,54.6,29.75,NW,315,2.7,3.1,94,0.00,,OVC048,0.75,VWS V14.01,2013-04-08 12:57:00,
2013-04-08 08:00:00,56.1,55.0,29.75,NW,315,3.1,4.0,96,0.00,,OVC048,0.75,VWS V14.01,2013-04-08 13:00:00,
2013-04-08 08:02:00,56.1,55.0,29.75,NW,315,2.2,3.1,96,0.00,,OVC048,0.75,VWS V14.01,2013-04-08 13:02:00,
2013-04-08 08:06:00,56.1,55.6,29.75,NW,315,3.1,3.1,98,0.00,,OVC048,0.75,VWS V14.01,2013-04-08 13:06:00,
2013-04-08 08:07:00,56.1,55.6,29.75,NW,315,3.1,3.6,98,0.00,,OVC048,0.75,VWS V14.01,2013-04-08 13:07:00,
2013-04-08 08:12:00,56.1,56.1,29.78,NW,315,3.1,4.0,100,0.00,,OVC048,0.75,VWS V14.01,2013-04-08 13:12:00,
2013-04-08 08:17:00,55.9,55.9,29.78,NW,315,0.0,0.0,100,0.00,,OVC048,0.75,VWS V14.01,2013-04-08 13:17:00,
2013-04-08 08:18:00,55.9,55.9,29.78,NW,315,0.0,0.0,100,0.00,,OVC048,0.75,VWS V14.01,2013-04-08 13:18:00,
2013-04-08 08:19:00,55.9,55.9,29.78,NW,318,5.4,5.4,100,0.00,,OVC048,0.75,VWS V14.01,2013-04-08 13:19:00,
2013-04-08 08:22:00,55.9,55.9,29.78,NNW,327,0.0,0.0,100,0.00,,OVC048,0.75,VWS V14.01,2013-04-08 13:22:00,
2013-04-08 08:24:00,55.9,55.9,29.78,NNW,327,0.0,0.0,100,0.00,,OVC048,0.75,VWS V14.01,2013-04-08 13:24:00,
2013-04-08 08:26:00,56.1,56.1,29.78,NNW,341,4.0,4.9,100,0.00,,OVC048,0.75,VWS V14.01,2013-04-08 13:26:00,
2013-04-08 08:28:00,56.1,56.1,29.78,NNW,341,2.7,2.7,100,0.00,,OVC048,0.75,VWS V14.01,2013-04-08 13:28:00,
2013-04-08 08:29:00,56.1,56.1,29.78,NNW,341,0.0,2.7,100,0.00,,OVC048,0.75,VWS V14.01,2013-04-08 13:29:00,
2013-04-08 08:30:00,56.1,56.1,29.78,NNW,341,3.6,3.6,100,0.00,,OVC048,0.75,VWS V14.01,2013-04-08 13:30:00,
2013-04-08 08:32:00,56.1,56.1,29.78,North,0,4.5,4.9,100,0.00,,OVC048,0.75,VWS V14.01,2013-04-08 13:32:00,
2013-04-08 08:33:00,56.1,56.1,29.78,NNW,345,6.3,6.3,100,0.00,,OVC048,0.75,VWS V14.01,2013-04-08 13:33:00,
2013-04-08 08:34:00,56.1,56.1,29.78,NNW,343,6.3,6.3,100,0.00,,OVC048,0.75,VWS V14.01,2013-04-08 13:34:00,
2013-04-08 08:36:00,56.1,56.1,29.78,North,4,5.8,6.3,100,0.00,,OVC048,0.75,VWS V14.01,2013-04-08 13:36:00,
2013-04-08 08:37:00,56.1,56.1,29.78,North,2,6.3,6.3,100,0.00,,OVC048,0.75,VWS V14.01,2013-04-08 13:37:00,
2013-04-08 08:39:00,56.1,56.1,29.78,North,3,5.4,6.3,100,0.00,,OVC048,0.75,VWS V14.01,2013-04-08 13:39:00,
2013-04-08 08:40:00,56.1,56.1,29.78,North,353,6.3,8.1,100,0.00,,OVC048,0.75,VWS V14.01,2013-04-08 13:40:00,
2013-04-08 08:42:00,56.3,56.3,29.78,North,4,6.3,7.6,100,0.00,,OVC048,0.75,VWS V14.01,2013-04-08 13:42:00,
2013-04-08 08:44:00,56.3,56.3,29.78,North,9,4.0,5.8,100,0.00,,OVC048,0.75,VWS V14.01,2013-04-08 13:44:00,
2013-04-08 08:45:00,56.3,56.3,29.78,NNE,17,5.8,5.8,100,0.00,,OVC048,0.75,VWS V14.01,2013-04-08 13:45:00,
2013-04-08 08:47:00,56.3,56.3,29.78,North,10,7.6,7.6,100,0.00,,OVC048,0.75,VWS V14.01,2013-04-08 13:47:00,
2013-04-08 08:50:00,56.3,56.3,29.78,NNE,13,6.3,7.6,100,0.00,,OVC048,0.75,VWS V14.01,2013-04-08 13:50:00,
2013-04-08 08:52:00,56.3,56.3,29.78,North,3,8.7,8.7,100,0.00,,OVC048,0.75,VWS V14.01,2013-04-08 13:52:00,
2013-04-08 08:56:00,56.5,56.5,29.78,North,9,7.2,7.2,100,0.00,,OVC048,0.75,VWS V14.01,2013-04-08 13:56:00,
2013-04-08 08:57:00,56.5,56.5,29.78,North,1,7.6,7.6,100,0.00,,OVC048,0.75,VWS V14.01,2013-04-08 13:57:00,
2013-04-08 08:58:00,56.7,56.7,29.78,North,7,5.8,5.8,100,0.00,,OVC048,0.75,VWS V14.01,2013-04-08 13:58:00,
2013-04-08 09:01:00,56.7,56.7,29.78,North,11,5.4,5.8,100,0.00,,OVC048,0.75,VWS V14.01,2013-04-08 14:01:00,
2013-04-08 09:02:00,56.7,56.1,29.78,North,11,6.3,6.3,98,0.00,,OVC048,0.75,VWS V14.01,2013-04-08 14:02:00,
2013-04-08 09:04:00,56.5,55.4,29.78,North,2,7.2,8.1,96,0.00,,OVC048,0.75,VWS V14.01,2013-04-08 14:04:00,
2013-04-08 09:07:00,56.3,55.2,29.78,NNE,12,5.8,5.8,96,0.00,,OVC048,0.75,VWS V14.01,2013-04-08 14:07:00,
2013-04-08 09:08:00,56.3,55.8,29.78,NNE,27,6.3,6.3,98,0.00,,OVC048,0.75,VWS V14.01,2013-04-08 14:08:00,
2013-04-08 09:09:00,56.3,55.8,29.78,NNE,30,3.6,6.3,98,0.00,,OVC048,0.75,VWS V14.01,2013-04-08 14:09:00,
2013-04-08 09:13:00,56.3,55.8,29.78,NNE,15,5.4,5.4,98,0.00,,OVC048,0.75,VWS V14.01,2013-04-08 14:13:00,
2013-04-08 09:14:00,56.5,55.9,29.78,NNE,33,3.6,4.0,98,0.00,,OVC048,0.75,VWS V14.01,2013-04-08 14:14:00,
2013-04-08 09:15:00,56.5,55.9,29.78,NNE,32,0.0,4.0,98,0.00,,OVC048,0.75,VWS V14.01,2013-04-08 14:15:00,
2013-04-08 09:18:00,56.7,56.7,29.78,NNE,24,2.7,3.6,100,0.00,,OVC048,0.75,VWS V14.01,2013-04-08 14:18:00,
2013-04-08 09:19:00,56.8,56.8,29.78,NNE,25,2.7,3.6,100,0.00,,OVC048,0.75,VWS V14.01,2013-04-08 14:19:00,
2013-04-08 09:20:00,57.0,57.0,29.78,NNE,28,5.8,5.8,100,0.00,,OVC048,0.75,VWS V14.01,2013-04-08 14:20:00,
2013-04-08 09:21:00,57.0,57.0,29.78,NNE,27,5.8,6.3,100,0.00,,OVC048,0.75,VWS V14.01,2013-04-08 14:21:00,
2013-04-08 09:23:00,57.0,56.5,29.78,NNE,17,5.8,5.8,98,0.00,,OVC048,0.75,VWS V14.01,2013-04-08 14:23:00,
2013-04-08 09:25:00,57.0,55.9,29.78,North,1,5.4,6.3,96,0.00,,OVC048,0.75,VWS V14.01,2013-04-08 14:25:00,
2013-04-08 09:27:00,57.2,55.5,29.78,NNE,15,5.8,5.8,94,0.00,,OVC048,0.75,VWS V14.01,2013-04-08 14:27:00,
2013-04-08 09:30:00,57.2,55.5,29.78,NNE,12,2.7,3.1,94,0.00,,OVC048,0.75,VWS V14.01,2013-04-08 14:30:00,
2013-04-08 09:32:00,57.2,55.5,29.78,NE,37,4.0,4.0,94,0.00,,OVC048,0.75,VWS V14.01,2013-04-08 14:32:00,
2013-04-08 09:35:00,57.4,55.1,29.78,NE,36,2.2,3.6,92,0.00,,OVC048,0.75,VWS V14.01,2013-04-08 14:35:00,
2013-04-08 09:36:00,57.4,55.1,29.78,NE,36,0.0,3.1,92,0.00,,OVC048,0.75,VWS V14.01,2013-04-08 14:36:00,
2013-04-08 09:37:00,57.6,55.3,29.78,NE,37,4.0,4.0,92,0.00,,OVC048,0.75,VWS V14.01,2013-04-08 14:37:00,
2013-04-08 09:38:00,57.7,55.4,29.78,NE,37,3.1,3.1,92,0.00,,OVC048,0.75,VWS V14.01,2013-04-08 14:38:00,
2013-04-08 09:41:00,58.1,55.2,29.81,NE,36,2.7,4.0,90,0.00,,OVC048,0.75,VWS V14.01,2013-04-08 14:41:00,
2013-04-08 09:42:00,58.3,55.4,29.81,NE,39,4.9,4.9,90,0.00,,OVC048,0.75,VWS V14.01,2013-04-08 14:42:00,
2013-04-08 09:43:00,58.5,54.9,29.81,NNE,16,4.0,5.4,88,0.00,,OVC048,0.75,VWS V14.01,2013-04-08 14:43:00,
2013-04-08 09:47:00,58.5,52.3,29.81,NNE,19,2.2,3.6,80,0.00,,OVC048,0.75,VWS V14.01,2013-04-08 14:47:00,
2013-04-08 09:48:00,58.5,52.3,29.81,NNE,19,0.0,3.6,80,0.00,,OVC048,0.75,VWS V14.01,2013-04-08 14:48:00,
2013-04-08 09:49:00,58.5,52.3,29.81,NNE,18,3.6,4.0,80,0.00,,OVC048,0.75,VWS V14.01,2013-04-08 14:49:00,
2013-04-08 09:50:00,58.5,52.3,29.81,NNE,18,2.2,2.2,80,0.00,,OVC048,0.75,VWS V14.01,2013-04-08 14:50:00,
2013-04-08 09:53:00,59.0,52.2,29.81,NNE,18,0.0,0.0,78,0.00,,OVC048,0.75,VWS V14.01,2013-04-08 14:53:00,
2013-04-08 09:54:00,59.2,52.3,29.81,NNE,19,4.0,4.0,78,0.00,,OVC048,0.75,VWS V14.01,2013-04-08 14:54:00,
2013-04-08 09:55:00,59.2,52.3,29.81,NNE,19,4.0,4.0,78,0.00,,OVC048,0.75,VWS V14.01,2013-04-08 14:55:00,
2013-04-08 09:58:00,59.9,51.6,29.81,NNE,20,4.0,4.0,74,0.00,,OVC048,0.75,VWS V14.01,2013-04-08 14:58:00,
2013-04-08 09:59:00,60.1,51.8,29.81,NNE,17,2.7,4.0,74,0.00,,OVC048,0.75,VWS V14.01,2013-04-08 14:59:00,
2013-04-08 10:00:00,60.3,50.5,29.81,NNE,16,3.1,3.6,70,0.00,,OVC048,0.75,VWS V14.01,2013-04-08 15:00:00,
2013-04-08 10:04:00,61.0,51.1,29.81,NNE,16,2.7,2.7,70,0.00,,OVC048,0.75,VWS V14.01,2013-04-08 15:04:00,
2013-04-08 10:05:00,61.3,50.7,29.81,NNE,16,0.0,0.0,68,0.00,,OVC048,0.75,VWS V14.01,2013-04-08 15:05:00,
2013-04-08 10:06:00,61.3,50.7,29.81,NNE,16,3.1,3.1,68,0.00,,OVC048,0.75,VWS V14.01,2013-04-08 15:06:00,
2013-04-08 10:10:00,61.7,51.0,29.81,North,3,5.4,5.4,68,0.00,,OVC048,0.75,VWS V14.01,2013-04-08 15:10:00,
2013-04-08 10:11:00,61.9,50.4,29.81,North,357,5.8,5.8,66,0.00,,OVC048,0.75,VWS V14.01,2013-04-08 15:11:00,
2013-04-08 10:12:00,61.9,50.4,29.81,North,357,3.6,5.8,66,0.00,,OVC048,0.75,VWS V14.01,2013-04-08 15:12:00,
2013-04-08 10:15:00,62.1,48.9,29.81,North,0,2.2,4.9,62,0.00,,OVC048,0.75,VWS V14.01,2013-04-08 15:15:00,
2013-04-08 10:16:00,62.2,48.2,29.81,North,357,3.6,3.6,60,0.00,,OVC048,0.75,VWS V14.01,2013-04-08 15:16:00,
2013-04-08 10:17:00,62.2,49.1,29.81,NNE,17,3.1,3.6,62,0.00,,OVC048,0.75,VWS V14.01,2013-04-08 15:17:00,
2013-04-08 10:20:00,62.8,51.3,29.81,NE,34,3.1,4.0,66,0.00,,OVC048,0.75,VWS V14.01,2013-04-08 15:20:00,
2013-04-08 10:22:00,63.0,49.8,29.81,NE,38,4.9,4.9,62,0.00,,OVC048,0.75,VWS V14.01,2013-04-08 15:22:00,
2013-04-08 10:23:00,63.0,48.9,29.81,North,6,5.8,5.8,60,0.00,,OVC048,0.75,VWS V14.01,2013-04-08 15:23:00,
2013-04-08 10:25:00,63.1,47.2,29.81,North,0,3.1,3.1,56,0.00,,OVC048,0.75,VWS V14.01,2013-04-08 15:25:00,
2013-04-08 10:27:00,63.5,49.4,29.81,North,353,4.0,4.0,60,0.00,,OVC048,0.75,VWS V14.01,2013-04-08 15:27:00,
2013-04-08 10:28:00,63.5,51.1,29.81,North,0,4.0,4.9,64,0.00,,OVC048,0.75,VWS V14.01,2013-04-08 15:28:00,
2013-04-08 10:29:00,63.7,52.1,29.81,North,11,3.6,6.3,66,0.00,,OVC048,0.75,VWS V14.01,2013-04-08 15:29:00,
2013-04-08 10:31:00,63.7,50.4,29.81,NNW,346,4.0,5.8,62,0.00,,OVC048,0.75,VWS V14.01,2013-04-08 15:31:00,
2013-04-08 10:33:00,64.0,49.0,29.81,NNW,345,2.7,3.1,58,0.00,,OVC048,0.75,VWS V14.01,2013-04-08 15:33:00,
2013-04-08 10:34:00,64.2,50.1,29.81,NNW,345,0.0,3.1,60,0.00,,OVC048,0.75,VWS V14.01,2013-04-08 15:34:00,
2013-04-08 10:38:00,64.4,47.4,29.81,North,0,0.0,0.0,54,0.00,,OVC048,0.75,VWS V14.01,2013-04-08 15:38:00,
2013-04-08 10:39:00,64.6,47.6,29.81,North,0,0.0,0.0,54,0.00,,OVC048,0.75,VWS V14.01,2013-04-08 15:39:00,
2013-04-08 10:43:00,65.3,48.2,29.81,North,0,0.0,0.0,54,0.00,,OVC048,0.75,VWS V14.01,2013-04-08 15:43:00,
2013-04-08 10:45:00,65.5,48.4,29.81,North,0,0.0,0.0,54,0.00,,OVC048,0.75,VWS V14.01,2013-04-08 15:45:00,
2013-04-08 10:48:00,65.7,47.6,29.81,North,0,0.0,0.0,52,0.00,,OVC048,0.75,VWS V14.01,2013-04-08 15:48:00,
2013-04-08 10:49:00,65.7,48.6,29.81,SE,135,3.6,3.6,54,0.00,,OVC048,0.75,VWS V14.01,2013-04-08 15:49:00,
2013-04-08 10:50:00,65.8,48.8,29.81,SSE,158,4.9,5.8,54,0.00,,OVC048,0.75,VWS V14.01,2013-04-08 15:50:00,
2013-04-08 10:54:00,65.8,47.7,29.81,South,182,2.7,3.1,52,0.00,,OVC048,0.75,VWS V14.01,2013-04-08 15:54:00,
2013-04-08 10:55:00,66.0,47.9,29.81,South,182,0.0,2.7,52,0.00,,OVC048,0.75,VWS V14.01,2013-04-08 15:55:00,
2013-04-08 10:57:00,66.0,47.9,29.81,South,182,0.0,0.0,52,0.00,,OVC048,0.75,VWS V14.01,2013-04-08 15:57:00,
2013-04-08 10:59:00,66.4,48.2,29.81,South,184,2.7,3.1,52,0.00,,OVC048,0.75,VWS V14.01,2013-04-08 15:59:00,
2013-04-08 11:00:00,66.4,48.2,29.81,South,184,2.7,3.1,52,0.00,,OVC048,0.75,VWS V14.01,2013-04-08 16:00:00,
2013-04-08 11:02:00,66.6,48.4,29.81,SE,146,2.2,2.7,52,0.00,,OVC048,0.75,VWS V14.01,2013-04-08 16:02:00,
2013-04-08 11:04:00,66.7,48.6,29.81,SE,146,0.0,0.0,52,0.00,,OVC048,0.75,VWS V14.01,2013-04-08 16:04:00,
2013-04-08 11:05:00,66.9,48.7,29.81,SE,146,0.0,0.0,52,0.00,,OVC048,0.75,VWS V14.01,2013-04-08 16:05:00,
2013-04-08 11:09:00,67.3,49.1,29.81,SE,146,0.0,0.0,52,0.00,,OVC048,0.75,VWS V14.01,2013-04-08 16:09:00,
2013-04-08 11:10:00,67.5,49.2,29.81,SE,146,0.0,0.0,52,0.00,,OVC048,0.75,VWS V14.01,2013-04-08 16:10:00,
2013-04-08 11:11:00,67.6,49.4,29.81,SE,146,0.0,0.0,52,0.00,,OVC048,0.75,VWS V14.01,2013-04-08 16:11:00,
2013-04-08 11:14:00,68.2,48.8,29.81,South,190,2.2,3.1,50,0.00,,OVC048,0.75,VWS V14.01,2013-04-08 16:14:00,
2013-04-08 11:16:00,68.4,49.0,29.81,SW,223,3.6,3.6,50,0.00,,OVC048,0.75,VWS V14.01,2013-04-08 16:16:00,
2013-04-08 11:19:00,68.2,48.8,29.81,SW,223,2.7,3.6,50,0.00,,OVC048,0.75,VWS V14.01,2013-04-08 16:19:00,
2013-04-08 11:20:00,68.2,47.8,29.81,SW,222,3.6,4.9,48,0.00,,OVC048,0.75,VWS V14.01,2013-04-08 16:20:00,
2013-04-08 11:22:00,68.0,47.6,29.81,SW,223,2.2,2.7,48,0.00,,OVC048,0.75,VWS V14.01,2013-04-08 16:22:00,
2013-04-08 11:23:00,68.0,47.6,29.81,SW,223,3.1,3.1,48,0.00,,OVC048,0.75,VWS V14.01,2013-04-08 16:23:00,
2013-04-08 11:25:00,67.8,47.4,29.81,SW,223,0.0,2.7,48,0.00,,OVC048,0.75,VWS V14.01,2013-04-08 16:25:00,
2013-04-08 11:27:00,67.8,48.5,29.81,WSW,250,4.0,5.4,50,0.00,,OVC048,0.75,VWS V14.01,2013-04-08 16:27:00,
2013-04-08 11:28:00,68.0,47.6,29.81,WSW,256,3.1,5.4,48,0.00,,OVC048,0.75,VWS V14.01,2013-04-08 16:28:00,
2013-04-08 11:30:00,68.2,48.8,29.81,WSW,242,3.6,3.6,50,0.00,,OVC048,0.75,VWS V14.01,2013-04-08 16:30:00,
2013-04-08 11:31:00,68.2,47.8,29.81,WSW,241,4.9,4.9,48,0.00,,OVC048,0.75,VWS V14.01,2013-04-08 16:31:00,
2013-04-08 11:32:00,68.4,47.9,29.81,SW,218,8.7,8.7,48,0.00,,OVC048,0.75,VWS V14.01,2013-04-08 16:32:00,
2013-04-08 11:35:00,68.4,47.9,29.81,WSW,238,8.1,10.1,48,0.00,,OVC048,0.75,VWS V14.01,2013-04-08 16:35:00,
2013-04-08 11:36:00,68.4,46.8,29.81,SW,215,8.3,8.3,46,0.00,,OVC048,0.75,VWS V14.01,2013-04-08 16:36:00,
2013-04-08 11:38:00,68.2,46.6,29.81,SSW,208,4.9,7.6,46,0.00,,OVC048,0.75,VWS V14.01,2013-04-08 16:38:00,
2013-04-08 11:40:00,68.2,47.8,29.81,SW,218,5.8,6.3,48,0.00,,OVC048,0.75,VWS V14.01,2013-04-08 16:40:00,
2013-04-08 11:41:00,68.2,47.8,29.81,SW,231,6.3,6.3,48,0.00,,OVC048,0.75,VWS V14.01,2013-04-08 16:41:00,
2013-04-08 11:42:00,68.2,47.8,29.81,SSW,204,8.1,8.1,48,0.00,,OVC048,0.75,VWS V14.01,2013-04-08 16:42:00,
2013-04-08 11:44:00,68.2,47.8,29.81,South,182,5.4,6.3,48,0.00,,OVC048,0.75,VWS V14.01,2013-04-08 16:44:00,
2013-04-08 11:46:00,68.2,48.8,29.81,South,180,7.6,8.1,50,0.00,,OVC048,0.75,VWS V14.01,2013-04-08 16:46:00,
2013-04-08 11:47:00,68.0,48.7,29.81,SSW,192,8.7,8.7,50,0.00,,OVC048,0.75,VWS V14.01,2013-04-08 16:47:00,
2013-04-08 11:48:00,68.2,48.8,29.81,SW,231,8.3,8.3,50,0.00,,OVC048,0.75,VWS V14.01,2013-04-08 16:48:00,
2013-04-08 11:50:00,68.0,47.6,29.81,SW,219,8.1,8.7,48,0.00,,OVC048,0.75,VWS V14.01,2013-04-08 16:50:00,
2013-04-08 11:51:00,67.8,48.5,29.81,SSW,198,8.3,9.6,50,0.00,,OVC048,0.75,VWS V14.01,2013-04-08 16:51:00,
2013-04-08 11:52:00,67.8,48.5,29.81,SSW,199,8.3,8.7,50,0.00,,OVC048,0.75,VWS V14.01,2013-04-08 16:52:00,
2013-04-08 11:54:00,67.8,48.5,29.81,SW,229,6.3,7.2,50,0.00,,OVC048,0.75,VWS V14.01,2013-04-08 16:54:00,
2013-04-08 11:55:00,67.6,47.3,29.81,SSW,208,7.6,8.7,48,0.00,,OVC048,0.75,VWS V14.01,2013-04-08 16:55:00,
2013-04-08 11:56:00,67.6,48.4,29.81,SSW,198,10.1,10.1,50,0.00,,OVC048,0.75,VWS V14.01,2013-04-08 16:56:00,
2013-04-08 11:59:00,67.3,48.0,29.81,South,179,5.4,5.8,50,0.00,,OVC048,0.75,VWS V14.01,2013-04-08 16:59:00,
2013-04-08 12:00:00,67.3,49.1,29.81,SSW,207,5.8,8.7,52,0.00,,OVC048,0.75,VWS V14.01,2013-04-08 17:00:00,
2013-04-08 12:02:00,67.3,50.1,29.81,SSW,197,6.3,8.3,54,0.00,,OVC048,0.75,VWS V14.01,2013-04-08 17:02:00,
2013-04-08 12:05:00,67.1,48.9,29.81,South,173,5.4,5.8,52,0.00,,OVC048,0.75,VWS V14.01,2013-04-08 17:05:00,
2013-04-08 12:10:00,67.1,48.9,29.78,SW,226,4.9,5.4,52,0.00,,OVC048,0.75,VWS V14.01,2013-04-08 17:10:00,
2013-04-08 12:11:00,67.1,47.9,29.78,SW,226,3.6,5.4,50,0.00,,OVC048,0.75,VWS V14.01,2013-04-08 17:11:00,
2013-04-08 12:12:00,67.1,47.9,29.78,SSW,212,5.8,7.2,50,0.00,,OVC048,0.75,VWS V14.01,2013-04-08 17:12:00,
2013-04-08 12:16:00,66.9,48.7,29.78,WSW,237,4.9,4.9,52,0.00,,OVC048,0.75,VWS V14.01,2013-04-08 17:16:00,
2013-04-08 12:17:00,66.9,48.7,29.78,WSW,237,4.0,4.9,52,0.00,,OVC048,0.75,VWS V14.01,2013-04-08 17:17:00,
2013-04-08 12:21:00,67.3,49.1,29.78,WSW,249,5.8,5.8,52,0.00,,OVC048,0.75,VWS V14.01,2013-04-08 17:21:00,
2013-04-08 12:22:00,67.5,49.2,29.78,SW,231,5.4,5.8,52,0.00,,OVC048,0.75,VWS V14.01,2013-04-08 17:22:00,
2013-04-08 12:23:00,67.5,49.2,29.78,SW,230,6.3,6.3,52,0.00,,OVC048,0.75,VWS V14.01,2013-04-08 17:23:00,
2013-04-08 12:26:00,68.0,48.7,29.78,WSW,237,5.4,5.4,50,0.00,,OVC048,0.75,VWS V14.01,2013-04-08 17:26:00,
2013-04-08 12:28:00,68.2,48.8,29.78,SW,225,5.8,5.8,50,0.00,,OVC048,0.75,VWS V14.01,2013-04-08 17:28:00,
2013-04-08 12:31:00,68.5,49.2,29.78,SSW,209,2.7,4.0,50,0.00,,OVC048,0.75,VWS V14.01,2013-04-08 17:31:00,
2013-04-08 12:33:00,68.9,49.5,29.78,South,184,3.1,6.3,50,0.00,,OVC048,0.75,VWS V14.01,2013-04-08 17:33:00,
2013-04-08 12:34:00,69.1,48.6,29.78,SSW,208,6.7,6.7,48,0.00,,OVC048,0.75,VWS V14.01,2013-04-08 17:34:00,
2013-04-08 12:37:00,69.3,48.8,29.78,South,178,5.4,6.7,48,0.00,,OVC048,0.75,VWS V14.01,2013-04-08 17:37:00,
2013-04-08 12:38:00,69.8,49.2,29.78,SSW,197,4.9,5.8,48,0.00,,OVC048,0.75,VWS V14.01,2013-04-08 17:38:00,
2013-04-08 12:40:00,70.2,49.6,29.78,SSW,197,6.3,6.3,48,0.00,,OVC048,0.75,VWS V14.01,2013-04-08 17:40:00,
2013-04-08 12:42:00,70.3,48.6,29.78,SW,226,5.8,6.7,46,0.00,,OVC048,0.75,VWS V14.01,2013-04-08 17:42:00,
2013-04-08 12:43:00,70.3,48.6,29.78,SW,229,6.3,8.3,46,0.00,,OVC048,0.75,VWS V14.01,2013-04-08 17:43:00,
2013-04-08 12:44:00,70.3,48.6,29.78,SSW,205,7.2,7.2,46,0.00,,OVC048,0.75,VWS V14.01,2013-04-08 17:44:00,
2013-04-08 12:45:00,70.3,48.6,29.78,SW,228,6.7,10.1,46,0.00,,OVC048,0.75,VWS V14.01,2013-04-08 17:45:00,
2013-04-08 12:47:00,70.0,48.3,29.78,SW,222,5.8,7.6,46,0.00,,OVC048,0.75,VWS V14.01,2013-04-08 17:47:00,
2013-04-08 12:48:00,69.8,48.1,29.78,WSW,239,6.7,8.7,46,0.00,,OVC048,0.75,VWS V14.01,2013-04-08 17:48:00,
2013-04-08 12:51:00,69.6,49.1,29.78,SW,224,5.8,8.3,48,0.00,,OVC048,0.75,VWS V14.01,2013-04-08 17:51:00,
2013-04-08 12:52:00,69.6,49.1,29.78,SW,216,6.3,8.3,48,0.00,,OVC048,0.75,VWS V14.01,2013-04-08 17:52:00,
2013-04-08 12:54:00,69.6,48.0,29.78,SW,233,5.8,6.7,46,0.00,,OVC048,0.75,VWS V14.01,2013-04-08 17:54:00,
2013-04-08 12:56:00,70.0,49.4,29.78,WSW,239,5.8,5.8,48,0.00,,OVC048,0.75,VWS V14.01,2013-04-08 17:56:00,
2013-04-08 12:57:00,70.0,49.4,29.78,SW,233,6.3,6.3,48,0.00,,OVC048,0.75,VWS V14.01,2013-04-08 17:57:00,
2013-04-08 13:00:00,70.9,49.1,29.78,WSW,242,8.3,8.3,46,0.00,,OVC048,0.75,VWS V14.01,2013-04-08 18:00:00,
2013-04-08 13:02:00,71.4,49.6,29.78,South,172,5.4,7.2,46,0.00,,OVC048,0.75,VWS V14.01,2013-04-08 18:02:00,
2013-04-08 13:04:00,71.8,49.9,29.78,SSW,196,7.6,7.6,46,0.00,,OVC048,0.75,VWS V14.01,2013-04-08 18:04:00,
2013-04-08 13:06:00,72.1,49.0,29.78,WSW,242,5.4,5.4,44,0.00,,OVC048,0.75,VWS V14.01,2013-04-08 18:06:00,
2013-04-08 13:07:00,72.5,49.4,29.78,WSW,258,3.6,5.4,44,0.00,,OVC048,0.75,VWS V14.01,2013-04-08 18:07:00,
2013-04-08 13:08:00,72.9,49.7,29.78,WSW,243,2.2,4.9,44,0.00,,OVC048,0.75,VWS V14.01,2013-04-08 18:08:00,
2013-04-08 13:09:00,73.0,49.9,29.78,WSW,241,3.6,4.0,44,0.00,,OVC048,0.75,VWS V14.01,2013-04-08 18:09:00,
2013-04-08 13:12:00,73.4,50.2,29.78,SW,223,4.0,5.8,44,0.00,,OVC048,0.75,VWS V14.01,2013-04-08 18:12:00,
2013-04-08 13:14:00,73.8,49.3,29.78,SSW,200,5.4,5.4,42,0.00,,OVC048,0.75,VWS V14.01,2013-04-08 18:14:00,
2013-04-08 13:17:00,74.3,49.8,29.78,SSW,202,0.0,0.0,42,0.00,,OVC048,0.75,VWS V14.01,2013-04-08 18:17:00,
2013-04-08 13:18:00,74.3,49.8,29.78,WSW,247,3.1,3.1,42,0.00,,OVC048,0.75,VWS V14.01,2013-04-08 18:18:00,
2013-04-08 13:19:00,74.3,49.8,29.78,WSW,244,3.6,3.6,42,0.00,,OVC048,0.75,VWS V14.01,2013-04-08 18:19:00,
2013-04-08 13:20:00,74.3,49.8,29.78,WSW,244,3.1,4.0,42,0.00,,OVC048,0.75,VWS V14.01,2013-04-08 18:20:00,
2013-04-08 13:23:00,74.3,49.8,29.78,WSW,245,2.7,3.6,42,0.00,,OVC048,0.75,VWS V14.01,2013-04-08 18:23:00,
2013-04-08 13:24:00,74.5,49.9,29.78,WSW,237,3.6,3.6,42,0.00,,OVC048,0.75,VWS V14.01,2013-04-08 18:24:00,
2013-04-08 13:25:00,74.5,49.9,29.78,West,259,4.0,5.8,42,0.00,,OVC048,0.75,VWS V14.01,2013-04-08 18:25:00,
2013-04-08 13:29:00,73.9,45.3,29.78,West,280,0.0,2.7,36,0.00,,OVC048,0.75,VWS V14.01,2013-04-08 18:29:00,
2013-04-08 13:30:00,74.1,49.6,29.78,WSW,238,3.6,4.0,42,0.00,,OVC048,0.75,VWS V14.01,2013-04-08 18:30:00,
2013-04-08 13:31:00,73.9,49.4,29.78,SW,231,2.7,2.7,42,0.00,,OVC048,0.75,VWS V14.01,2013-04-08 18:31:00,
2013-04-08 13:34:00,74.3,49.8,29.78,SW,231,2.2,2.7,42,0.00,,OVC048,0.75,VWS V14.01,2013-04-08 18:34:00,
2013-04-08 13:35:00,74.3,49.8,29.78,SW,233,2.2,2.2,42,0.00,,OVC048,0.75,VWS V14.01,2013-04-08 18:35:00,
2013-04-08 13:36:00,74.5,49.9,29.78,WSW,252,4.5,5.8,42,0.00,,OVC048,0.75,VWS V14.01,2013-04-08 18:36:00,
2013-04-08 13:37:00,74.5,49.9,29.78,WSW,257,4.9,5.8,42,0.00,,OVC048,0.75,VWS V14.01,2013-04-08 18:37:00,
2013-04-08 13:42:00,74.1,49.6,29.75,SW,236,4.9,5.4,42,0.00,,OVC048,0.75,VWS V14.01,2013-04-08 18:42:00,
2013-04-08 13:47:00,74.7,50.1,29.75,SW,233,7.6,7.6,42,0.00,,OVC048,0.75,VWS V14.01,2013-04-08 18:47:00,
2013-04-08 13:49:00,74.8,50.2,29.75,SW,234,10.1,10.1,42,0.00,,OVC048,0.75,VWS V14.01,2013-04-08 18:49:00,
2013-04-08 13:52:00,74.7,50.1,29.75,SW,220,6.7,6.7,42,0.00,,OVC048,0.75,VWS V14.01,2013-04-08 18:52:00,
2013-04-08 13:53:00,74.3,49.8,29.75,South,180,7.6,7.6,42,0.00,,OVC048,0.75,VWS V14.01,2013-04-08 18:53:00,
2013-04-08 13:54:00,74.5,49.9,29.78,SW,233,8.1,9.6,42,0.00,,OVC048,0.75,VWS V14.01,2013-04-08 18:54:00,
2013-04-08 13:58:00,74.3,49.8,29.78,SW,236,5.8,8.1,42,0.00,,OVC048,0.75,VWS V14.01,2013-04-08 18:58:00,
2013-04-08 13:59:00,73.9,49.4,29.78,West,261,5.4,6.3,42,0.00,,OVC048,0.75,VWS V14.01,2013-04-08 18:59:00,
2013-04-08 14:03:00,74.1,49.6,29.78,SSW,204,8.7,8.7,42,0.00,,OVC048,0.75,VWS V14.01,2013-04-08 19:03:00,
2013-04-08 14:04:00,73.9,49.4,29.78,South,186,8.7,8.7,42,0.00,,OVC048,0.75,VWS V14.01,2013-04-08 19:04:00,
2013-04-08 14:05:00,73.9,49.4,29.78,SSW,211,9.6,9.6,42,0.00,,OVC048,0.75,VWS V14.01,2013-04-08 19:05:00,
2013-04-08 14:08:00,73.6,49.1,29.78,South,187,7.6,8.7,42,0.00,,OVC048,0.75,VWS V14.01,2013-04-08 19:08:00,
2013-04-08 14:09:00,73.8,50.5,29.75,SW,230,8.7,8.7,44,0.00,,OVC048,0.75,VWS V14.01,2013-04-08 19:09:00,
2013-04-08 14:10:00,73.6,49.1,29.75,SSW,197,8.3,10.5,42,0.00,,OVC048,0.75,VWS V14.01,2013-04-08 19:10:00,
2013-04-08 14:11:00,73.4,48.9,29.75,WSW,239,8.1,8.7,42,0.00,,OVC048,0.75,VWS V14.01,2013-04-08 19:11:00,
2013-04-08 14:14:00,73.8,49.3,29.75,WSW,241,5.8,6.3,42,0.00,,OVC048,0.75,VWS V14.01,2013-04-08 19:14:00,
2013-04-08 14:15:00,73.8,49.3,29.75,SSW,203,8.1,8.1,42,0.00,,OVC048,0.75,VWS V14.01,2013-04-08 19:15:00,
2013-04-08 14:16:00,73.6,49.1,29.75,SW,234,5.8,8.1,42,0.00,,OVC048,0.75,VWS V14.01,2013-04-08 19:16:00,
2013-04-08 14:19:00,73.6,49.1,29.75,SSW,209,5.4,6.7,42,0.00,,OVC048,0.75,VWS V14.01,2013-04-08 19:19:00,
2013-04-08 14:20:00,73.6,49.1,29.75,SW,216,5.4,5.4,42,0.00,,OVC048,0.75,VWS V14.01,2013-04-08 19:20:00,
2013-04-08 14:21:00,73.6,49.1,29.75,South,170,5.4,6.7,42,0.00,,OVC048,0.75,VWS V14.01,2013-04-08 19:21:00,
2013-04-08 14:25:00,73.9,49.4,29.75,SSW,206,8.1,8.1,42,0.00,,OVC048,0.75,VWS V14.01,2013-04-08 19:25:00,
2013-04-08 14:27:00,73.8,49.3,29.75,SW,214,11.0,11.0,42,0.00,,OVC048,0.75,VWS V14.01,2013-04-08 19:27:00,
2013-04-08 14:30:00,73.4,48.9,29.75,SSW,200,6.3,6.3,42,0.00,,OVC048,0.75,VWS V14.01,2013-04-08 19:30:00,
2013-04-08 14:31:00,73.4,48.9,29.75,SSW,209,8.3,8.3,42,0.00,,OVC048,0.75,VWS V14.01,2013-04-08 19:31:00,
2013-04-08 14:32:00,73.4,48.9,29.75,SW,228,6.3,10.5,42,0.00,,OVC048,0.75,VWS V14.01,2013-04-08 19:32:00,
2013-04-08 14:33:00,73.4,48.9,29.75,South,185,7.6,7.6,42,0.00,,OVC048,0.75,VWS V14.01,2013-04-08 19:33:00,
2013-04-08 14:36:00,74.7,50.1,29.75,WSW,244,5.8,5.8,42,0.00,,OVC048,0.75,VWS V14.01,2013-04-08 19:36:00,
2013-04-08 14:37:00,74.8,50.2,29.75,WSW,244,5.8,6.3,42,0.00,,OVC048,0.75,VWS V14.01,2013-04-08 19:37:00,
2013-04-08 14:38:00,74.8,46.1,29.75,WSW,244,2.2,6.3,36,0.00,,OVC048,0.75,VWS V14.01,2013-04-08 19:38:00,
2013-04-08 14:41:00,74.7,46.0,29.75,SW,222,8.3,8.3,36,0.00,,OVC048,0.75,VWS V14.01,2013-04-08 19:41:00,
2013-04-08 14:43:00,74.8,46.1,29.75,SSW,198,8.1,8.3,36,0.00,,OVC048,0.75,VWS V14.01,2013-04-08 19:43:00,
2013-04-08 14:44:00,74.7,46.0,29.75,South,185,6.7,8.3,36,0.00,,OVC048,0.75,VWS V14.01,2013-04-08 19:44:00,
2013-04-08 14:47:00,74.8,46.1,29.75,SSW,204,8.3,8.3,36,0.00,,OVC048,0.75,VWS V14.01,2013-04-08 19:47:00,
2013-04-08 14:48:00,74.7,46.0,29.75,SW,223,8.3,8.7,36,0.00,,OVC048,0.75,VWS V14.01,2013-04-08 19:48:00,
2013-04-08 14:49:00,74.8,46.1,29.75,SW,216,5.4,7.6,36,0.00,,OVC048,0.75,VWS V14.01,2013-04-08 19:49:00,
2013-04-08 14:50:00,75.0,46.3,29.75,South,173,6.3,7.6,36,0.00,,OVC048,0.75,VWS V14.01,2013-04-08 19:50:00,
2013-04-08 14:52:00,75.4,49.4,29.75,SSE,153,5.8,5.8,40,0.00,,OVC048,0.75,VWS V14.01,2013-04-08 19:52:00,
2013-04-08 14:54:00,75.4,46.6,29.75,SW,223,3.1,4.9,36,0.00,,OVC048,0.75,VWS V14.01,2013-04-08 19:54:00,
2013-04-08 14:55:00,75.4,46.6,29.75,SW,221,6.3,6.3,36,0.00,,OVC048,0.75,VWS V14.01,2013-04-08 19:55:00,
2013-04-08 14:58:00,74.8,46.1,29.75,SSW,197,7.6,8.7,36,0.00,,OVC048,0.75,VWS V14.01,2013-04-08 19:58:00,
2013-04-08 14:59:00,74.8,46.1,29.75,SW,218,4.0,7.6,36,0.00,,OVC048,0.75,VWS V14.01,2013-04-08 19:59:00,
2013-04-08 15:00:00,74.8,46.1,29.75,SW,218,3.1,4.0,36,0.00,,OVC048,0.75,VWS V14.01,2013-04-08 20:00:00,
2013-04-08 15:03:00,75.0,46.3,29.75,WSW,251,2.7,2.7,36,0.00,,OVC048,0.75,VWS V14.01,2013-04-08 20:03:00,
2013-04-08 15:04:00,75.6,46.8,29.75,SW,227,3.6,3.6,36,0.00,,OVC048,0.75,VWS V14.01,2013-04-08 20:04:00,
2013-04-08 15:05:00,75.7,46.9,29.75,SW,221,6.3,6.3,36,0.00,,OVC048,0.75,VWS V14.01,2013-04-08 20:05:00,
2013-04-08 15:08:00,76.8,47.9,29.75,SSE,157,5.4,5.8,36,0.00,,OVC048,0.75,VWS V14.01,2013-04-08 20:08:00,
2013-04-08 15:10:00,77.2,48.2,29.75,SSW,205,5.8,6.3,36,0.00,,OVC048,0.75,VWS V14.01,2013-04-08 20:10:00,
2013-04-08 15:11:00,77.4,48.3,29.75,SE,146,5.4,6.3,36,0.00,,OVC048,0.75,VWS V14.01,2013-04-08 20:11:00,
2013-04-08 15:13:00,76.6,42.9,29.75,South,187,6.3,10.1,30,0.00,,OVC048,0.75,VWS V14.01,2013-04-08 20:13:00,
2013-04-08 15:15:00,76.3,42.6,29.75,WSW,246,5.4,10.1,30,0.00,,OVC048,0.75,VWS V14.01,2013-04-08 20:15:00,
2013-04-08 15:16:00,76.1,42.5,29.75,WSW,246,4.0,5.4,30,0.00,,OVC048,0.75,VWS V14.01,2013-04-08 20:16:00,
2013-04-08 15:21:00,76.3,47.4,29.75,South,189,2.7,2.7,36,0.00,,OVC048,0.75,VWS V14.01,2013-04-08 20:21:00,
2013-04-08 15:26:00,75.6,42.0,29.75,SW,215,5.8,8.7,30,0.00,,OVC048,0.75,VWS V14.01,2013-04-08 20:26:00,
2013-04-08 15:27:00,75.4,41.8,29.75,SSW,203,8.1,8.3,30,0.00,,OVC048,0.75,VWS V14.01,2013-04-08 20:27:00,
2013-04-08 15:28:00,75.0,46.3,29.75,SSW,206,8.7,10.5,36,0.00,,OVC048,0.75,VWS V14.01,2013-04-08 20:28:00,
2013-04-08 15:31:00,74.3,42.6,29.75,SSW,209,8.3,11.0,32,0.00,,OVC048,0.75,VWS V14.01,2013-04-08 20:31:00,
2013-04-08 15:32:00,74.1,45.5,29.75,SSW,199,8.3,8.3,36,0.00,,OVC048,0.75,VWS V14.01,2013-04-08 20:32:00,
2013-04-08 15:33:00,74.1,42.4,29.75,WSW,238,6.3,8.7,32,0.00,,OVC048,0.75,VWS V14.01,2013-04-08 20:33:00,
2013-04-08 15:35:00,74.3,45.7,29.75,SSW,210,5.4,7.6,36,0.00,,OVC048,0.75,VWS V14.01,2013-04-08 20:35:00,
2013-04-08 15:37:00,74.3,45.7,29.75,SSW,197,5.4,8.7,36,0.00,,OVC048,0.75,VWS V14.01,2013-04-08 20:37:00,
2013-04-08 15:38:00,74.3,45.7,29.75,SW,218,6.3,8.1,36,0.00,,OVC048,0.75,VWS V14.01,2013-04-08 20:38:00,
2013-04-08 15:40:00,74.3,45.7,29.75,SSW,193,8.7,8.7,36,0.00,,OVC048,0.75,VWS V14.01,2013-04-08 20:40:00,
2013-04-08 15:42:00,73.9,42.2,29.75,South,191,9.6,11.0,32,0.00,,OVC048,0.75,VWS V14.01,2013-04-08 20:42:00,
2013-04-08 15:43:00,73.8,45.2,29.75,SSW,201,8.3,8.3,36,0.00,,OVC048,0.75,VWS V14.01,2013-04-08 20:43:00,
2013-04-08 15:44:00,73.8,45.2,29.75,SSW,200,7.6,8.3,36,0.00,,OVC048,0.75,VWS V14.01,2013-04-08 20:44:00,
2013-04-08 15:47:00,73.0,48.6,29.75,SW,224,8.1,8.1,42,0.00,,OVC048,0.75,VWS V14.01,2013-04-08 20:47:00,
2013-04-08 15:49:00,72.7,45.6,29.75,SSW,202,10.1,10.1,38,0.00,,OVC048,0.75,VWS V14.01,2013-04-08 20:49:00,
2013-04-08 15:52:00,72.7,45.6,29.75,SSW,203,5.8,6.3,38,0.00,,OVC048,0.75,VWS V14.01,2013-04-08 20:52:00,
2013-04-08 15:53:00,72.5,45.5,29.75,SSW,205,5.4,5.4,38,0.00,,OVC048,0.75,VWS V14.01,2013-04-08 20:53:00,
2013-04-08 15:54:00,72.5,45.5,29.75,SW,233,5.4,8.1,38,0.00,,OVC048,0.75,VWS V14.01,2013-04-08 20:54:00,
2013-04-08 15:57:00,72.3,45.3,29.75,WSW,239,5.8,5.8,38,0.00,,OVC048,0.75,VWS V14.01,2013-04-08 20:57:00,
2013-04-08 15:58:00,72.1,47.8,29.75,SW,215,6.7,6.7,42,0.00,,OVC048,0.75,VWS V14.01,2013-04-08 20:58:00,
2013-04-08 16:00:00,72.1,47.8,29.75,WSW,240,5.8,5.8,42,0.00,,OVC048,0.75,VWS V14.01,2013-04-08 21:00:00,
2013-04-08 16:02:00,71.8,47.5,29.75,SSW,199,8.7,8.7,42,0.00,,OVC048,0.75,VWS V14.01,2013-04-08 21:02:00,
2013-04-08 16:05:00,71.6,47.3,29.75,SW,214,7.6,7.6,42,0.00,,OVC048,0.75,VWS V14.01,2013-04-08 21:05:00,
2013-04-08 16:06:00,71.4,48.4,29.75,SSW,209,5.8,6.3,44,0.00,,OVC048,0.75,VWS V14.01,2013-04-08 21:06:00,
2013-04-08 16:08:00,71.2,48.2,29.75,South,188,6.3,6.3,44,0.00,,OVC048,0.75,VWS V14.01,2013-04-08 21:08:00,
2013-04-08 16:10:00,71.1,48.1,29.75,SSE,168,6.3,8.1,44,0.00,,OVC048,0.75,VWS V14.01,2013-04-08 21:10:00,
2013-04-08 16:11:00,71.1,48.1,29.75,South,175,7.6,7.6,44,0.00,,OVC048,0.75,VWS V14.01,2013-04-08 21:11:00,
2013-04-08 16:14:00,71.1,48.1,29.75,SSW,209,5.4,5.4,44,0.00,,OVC048,0.75,VWS V14.01,2013-04-08 21:14:00,
2013-04-08 16:15:00,71.2,48.2,29.75,SSW,206,6.3,6.3,44,0.00,,OVC048,0.75,VWS V14.01,2013-04-08 21:15:00,
2013-04-08 16:16:00,71.2,48.2,29.75,SSW,202,5.8,6.3,44,0.00,,OVC048,0.75,VWS V14.01,2013-04-08 21:16:00,
2013-04-08 16:17:00,71.4,48.4,29.75,South,172,4.9,6.3,44,0.00,,OVC048,0.75,VWS V14.01,2013-04-08 21:17:00,
2013-04-08 16:20:00,71.8,48.7,29.75,South,187,3.1,3.1,44,0.00,,OVC048,0.75,VWS V14.01,2013-04-08 21:20:00,
2013-04-08 16:21:00,72.1,49.0,29.75,South,181,5.4,6.3,44,0.00,,OVC048,0.75,VWS V14.01,2013-04-08 21:21:00,
2013-04-08 16:22:00,72.3,49.2,29.75,SSE,167,5.8,6.3,44,0.00,,OVC048,0.75,VWS V14.01,2013-04-08 21:22:00,
2013-04-08 16:25:00,72.9,48.5,29.75,South,187,7.6,7.6,42,0.00,,OVC048,0.75,VWS V14.01,2013-04-08 21:25:00,
2013-04-08 16:27:00,72.9,48.5,29.75,SW,218,9.6,9.6,42,0.00,,OVC048,0.75,VWS V14.01,2013-04-08 21:27:00,
2013-04-08 16:30:00,73.0,46.0,29.75,South,190,5.8,6.3,38,0.00,,OVC048,0.75,VWS V14.01,2013-04-08 21:30:00,
2013-04-08 16:32:00,73.0,46.0,29.75,South,191,5.4,5.4,38,0.00,,OVC048,0.75,VWS V14.01,2013-04-08 21:32:00,
2013-04-08 16:35:00,73.4,44.8,29.75,WSW,240,8.1,8.1,36,0.00,,OVC048,0.75,VWS V14.01,2013-04-08 21:35:00,
2013-04-08 16:37:00,73.4,44.8,29.75,SW,224,6.3,6.3,36,0.00,,OVC048,0.75,VWS V14.01,2013-04-08 21:37:00,
2013-04-08 16:38:00,73.6,49.1,29.75,SW,228,8.7,8.7,42,0.00,,OVC048,0.75,VWS V14.01,2013-04-08 21:38:00,
2013-04-08 16:40:00,73.8,45.2,29.75,South,191,7.6,7.6,36,0.00,,OVC048,0.75,VWS V14.01,2013-04-08 21:40:00,
2013-04-08 16:43:00,73.8,45.2,29.75,South,181,5.4,6.3,36,0.00,,OVC048,0.75,VWS V14.01,2013-04-08 21:43:00,
2013-04-08 16:44:00,73.6,45.0,29.75,SSE,154,8.3,8.3,36,0.00,,OVC048,0.75,VWS V14.01,2013-04-08 21:44:00,
2013-04-08 16:47:00,73.2,46.1,29.75,SSW,197,5.8,8.3,38,0.00,,OVC048,0.75,VWS V14.01,2013-04-08 21:47:00,
2013-04-08 16:48:00,73.2,46.1,29.75,South,174,6.3,8.3,38,0.00,,OVC048,0.75,VWS V14.01,2013-04-08 21:48:00,
2013-04-08 16:49:00,72.9,48.5,29.75,South,173,6.3,6.3,42,0.00,,OVC048,0.75,VWS V14.01,2013-04-08 21:49:00,
2013-04-08 16:51:00,72.9,48.5,29.75,SSE,156,5.4,5.4,42,0.00,,OVC048,0.75,VWS V14.01,2013-04-08 21:51:00,
2013-04-08 16:53:00,72.7,45.6,29.75,SSE,156,6.3,6.3,38,0.00,,OVC048,0.75,VWS V14.01,2013-04-08 21:53:00,
2013-04-08 16:55:00,72.5,48.1,29.75,South,175,5.4,7.6,42,0.00,,OVC048,0.75,VWS V14.01,2013-04-08 21:55:00,
2013-04-08 16:56:00,72.3,48.0,29.75,South,178,5.4,6.3,42,0.00,,OVC048,0.75,VWS V14.01,2013-04-08 21:56:00,
2013-04-08 16:58:00,72.3,48.0,29.75,South,186,6.3,8.1,42,0.00,,OVC048,0.75,VWS V14.01,2013-04-08 21:58:00,
2013-04-08 16:59:00,72.3,48.0,29.75,SSE,166,5.8,8.1,42,0.00,,OVC048,0.75,VWS V14.01,2013-04-08 21:59:00,
2013-04-08 17:01:00,72.3,48.0,29.75,SSW,197,6.3,8.3,42,0.00,,OVC048,0.75,VWS V14.01,2013-04-08 22:01:00,
2013-04-08 17:02:00,72.3,48.0,29.75,South,183,8.1,8.3,42,0.00,,OVC048,0.75,VWS V14.01,2013-04-08 22:02:00,
2013-04-08 17:04:00,72.3,45.3,29.75,SSW,195,8.1,8.1,38,0.00,,OVC048,0.75,VWS V14.01,2013-04-08 22:04:00,
2013-04-08 17:07:00,72.3,48.0,29.75,South,171,5.4,6.3,42,0.00,,OVC048,0.75,VWS V14.01,2013-04-08 22:07:00,
2013-04-08 17:08:00,72.5,48.1,29.75,South,188,5.4,5.4,42,0.00,,OVC048,0.75,VWS V14.01,2013-04-08 22:08:00,
2013-04-08 17:09:00,72.5,48.1,29.75,SSE,164,5.4,5.4,42,0.00,,OVC048,0.75,VWS V14.01,2013-04-08 22:09:00,
2013-04-08 17:13:00,72.5,48.1,29.75,SSW,198,4.5,5.4,42,0.00,,OVC048,0.75,VWS V14.01,2013-04-08 22:13:00,
2013-04-08 17:14:00,72.5,48.1,29.75,SSE,160,4.0,5.4,42,0.00,,OVC048,0.75,VWS V14.01,2013-04-08 22:14:00,
2013-04-08 17:16:00,72.5,48.1,29.75,South,170,3.6,3.6,42,0.00,,OVC048,0.75,VWS V14.01,2013-04-08 22:16:00,
2013-04-08 17:18:00,72.3,48.0,29.75,South,187,6.3,6.3,42,0.00,,OVC048,0.75,VWS V14.01,2013-04-08 22:18:00,
2013-04-08 17:19:00,72.5,48.1,29.75,South,175,2.7,5.4,42,0.00,,OVC048,0.75,VWS V14.01,2013-04-08 22:19:00,
2013-04-08 17:20:00,72.3,48.0,29.75,South,174,2.2,2.7,42,0.00,,OVC048,0.75,VWS V14.01,2013-04-08 22:20:00,
2013-04-08 17:23:00,72.1,47.8,29.75,SE,144,5.4,5.4,42,0.00,,OVC048,0.75,VWS V14.01,2013-04-08 22:23:00,
2013-04-08 17:25:00,72.0,47.6,29.75,SE,142,4.9,6.3,42,0.00,,OVC048,0.75,VWS V14.01,2013-04-08 22:25:00,
2013-04-08 17:29:00,71.8,48.7,29.75,SSE,162,3.6,4.0,44,0.00,,OVC048,0.75,VWS V14.01,2013-04-08 22:29:00,
2013-04-08 17:30:00,71.8,48.7,29.75,SSE,165,4.9,4.9,44,0.00,,OVC048,0.75,VWS V14.01,2013-04-08 22:30:00,
2013-04-08 17:35:00,71.8,47.5,29.75,SSE,167,4.0,4.9,42,0.00,,OVC048,0.75,VWS V14.01,2013-04-08 22:35:00,
2013-04-08 17:40:00,71.8,48.7,29.75,SSE,160,0.0,0.0,44,0.00,,OVC048,0.75,VWS V14.01,2013-04-08 22:40:00,
2013-04-08 17:45:00,71.8,48.7,29.75,SSE,160,0.0,0.0,44,0.00,,OVC048,0.75,VWS V14.01,2013-04-08 22:45:00,
2013-04-08 17:47:00,71.8,48.7,29.75,SSE,160,0.0,0.0,44,0.00,,OVC048,0.75,VWS V14.01,2013-04-08 22:47:00,
2013-04-08 17:50:00,71.8,48.7,29.75,SSE,160,0.0,2.7,44,0.00,,OVC048,0.75,VWS V14.01,2013-04-08 22:50:00,
2013-04-08 17:51:00,71.8,48.7,29.75,SSE,160,0.0,0.0,44,0.00,,OVC048,0.75,VWS V14.01,2013-04-08 22:51:00,
2013-04-08 17:52:00,71.8,48.7,29.75,SSE,160,0.0,0.0,44,0.00,,OVC048,0.75,VWS V14.01,2013-04-08 22:52:00,
2013-04-08 17:55:00,71.8,48.7,29.75,SSE,151,0.0,0.0,44,0.00,,OVC048,0.75,VWS V14.01,2013-04-08 22:55:00,
2013-04-08 17:56:00,71.8,48.7,29.75,SSE,151,0.0,0.0,44,0.00,,OVC048,0.75,VWS V14.01,2013-04-08 22:56:00,
2013-04-08 17:58:00,71.8,48.7,29.75,SSE,151,0.0,0.0,44,0.00,,OVC048,0.75,VWS V14.01,2013-04-08 22:58:00,
2013-04-08 18:00:00,71.8,48.7,29.75,SSE,151,0.0,0.0,44,0.00,,OVC048,0.75,VWS V14.01,2013-04-08 23:00:00,
2013-04-08 18:01:00,71.8,48.7,29.75,SSE,151,0.0,0.0,44,0.00,,OVC048,0.75,VWS V14.01,2013-04-08 23:01:00,
2013-04-08 18:03:00,72.0,48.9,29.75,SSE,151,2.7,3.1,44,0.00,,OVC048,0.75,VWS V14.01,2013-04-08 23:03:00,
2013-04-08 18:04:00,72.0,48.9,29.75,SSE,151,0.0,0.0,44,0.00,,OVC048,0.75,VWS V14.01,2013-04-08 23:04:00,
2013-04-08 18:06:00,72.0,48.9,29.75,SSE,151,0.0,0.0,44,0.00,,OVC048,0.75,VWS V14.01,2013-04-08 23:06:00,
2013-04-08 18:07:00,72.0,48.9,29.75,SSE,151,0.0,0.0,44,0.00,,OVC048,0.75,VWS V14.01,2013-04-08 23:07:00,
2013-04-08 18:08:00,71.8,47.5,29.75,SSE,151,0.0,0.0,42,0.00,,OVC048,0.75,VWS V14.01,2013-04-08 23:08:00,
2013-04-08 18:09:00,71.8,47.5,29.75,SSE,151,0.0,0.0,42,0.00,,OVC048,0.75,VWS V14.01,2013-04-08 23:09:00,
2013-04-08 18:11:00,71.8,48.7,29.75,SSE,151,0.0,0.0,44,0.00,,OVC048,0.75,VWS V14.01,2013-04-08 23:11:00,
2013-04-08 18:13:00,71.6,48.6,29.75,East,80,0.0,0.0,44,0.00,,OVC048,0.75,VWS V14.01,2013-04-08 23:13:00,
2013-04-08 18:15:00,71.6,48.6,29.75,East,91,0.0,0.0,44,0.00,,OVC048,0.75,VWS V14.01,2013-04-08 23:15:00,
2013-04-08 18:16:00,71.4,48.4,29.75,East,91,0.0,0.0,44,0.00,,OVC048,0.75,VWS V14.01,2013-04-08 23:16:00,
2013-04-08 18:17:00,71.4,48.4,29.75,East,91,0.0,0.0,44,0.00,,OVC048,0.75,VWS V14.01,2013-04-08 23:17:00,
2013-04-08 18:18:00,71.4,48.4,29.75,East,91,0.0,0.0,44,0.00,,OVC048,0.75,VWS V14.01,2013-04-08 23:18:00,
2013-04-08 18:20:00,71.2,48.2,29.75,East,91,0.0,0.0,44,0.00,,OVC048,0.75,VWS V14.01,2013-04-08 23:20:00,
2013-04-08 18:22:00,71.2,48.2,29.75,East,91,0.0,0.0,44,0.00,,OVC048,0.75,VWS V14.01,2013-04-08 23:22:00,
2013-04-08 18:24:00,71.1,48.1,29.75,East,91,0.0,0.0,44,0.00,,OVC048,0.75,VWS V14.01,2013-04-08 23:24:00,
2013-04-08 18:25:00,71.1,48.1,29.75,East,91,0.0,0.0,44,0.00,,OVC048,0.75,VWS V14.01,2013-04-08 23:25:00,
2013-04-08 18:28:00,70.9,47.9,29.75,East,91,0.0,0.0,44,0.00,,OVC048,0.75,VWS V14.01,2013-04-08 23:28:00,
2013-04-08 18:29:00,70.7,47.7,29.75,East,92,0.0,0.0,44,0.00,,OVC048,0.75,VWS V14.01,2013-04-08 23:29:00,
2013-04-08 18:31:00,70.7,47.7,29.75,East,101,0.0,0.0,44,0.00,,OVC048,0.75,VWS V14.01,2013-04-08 23:31:00,
2013-04-08 18:33:00,70.5,48.8,29.75,ESE,121,0.0,0.0,46,0.00,,OVC048,0.75,VWS V14.01,2013-04-08 23:33:00,
2013-04-08 18:34:00,70.5,48.8,29.75,ESE,121,0.0,0.0,46,0.00,,OVC048,0.75,VWS V14.01,2013-04-08 23:34:00,
2013-04-08 18:35:00,70.5,48.8,29.75,ESE,121,0.0,0.0,46,0.00,,OVC048,0.75,VWS V14.01,2013-04-08 23:35:00,
2013-04-08 18:36:00,70.3,48.6,29.75,SE,130,0.0,0.0,46,0.00,,OVC048,0.75,VWS V14.01,2013-04-08 23:36:00,
2013-04-08 18:39:00,70.2,48.4,29.75,SE,130,0.0,0.0,46,0.00,,OVC048,0.75,VWS V14.01,2013-04-08 23:39:00,
2013-04-08 18:40:00,70.2,48.4,29.75,SE,130,0.0,0.0,46,0.00,,OVC048,0.75,VWS V14.01,2013-04-08 23:40:00,
2013-04-08 18:42:00,70.0,48.3,29.75,SE,130,0.0,0.0,46,0.00,,OVC048,0.75,VWS V14.01,2013-04-08 23:42:00,
2013-04-08 18:44:00,70.0,48.3,29.75,SE,130,0.0,0.0,46,0.00,,OVC048,0.75,VWS V14.01,2013-04-08 23:44:00,
2013-04-08 18:45:00,70.0,48.3,29.75,SE,130,3.1,3.6,46,0.00,,OVC048,0.75,VWS V14.01,2013-04-08 23:45:00,
2013-04-08 18:47:00,69.8,48.1,29.75,SE,128,2.2,2.2,46,0.00,,OVC048,0.75,VWS V14.01,2013-04-08 23:47:00,
2013-04-08 18:48:00,69.8,48.1,29.75,SE,128,2.2,3.1,46,0.00,,OVC048,0.75,VWS V14.01,2013-04-08 23:48:00,
2013-04-08 18:49:00,69.8,48.1,29.75,SE,127,0.0,0.0,46,0.00,,OVC048,0.75,VWS V14.01,2013-04-08 23:49:00,
2013-04-08 18:51:00,69.6,48.0,29.75,SE,127,0.0,0.0,46,0.00,,OVC048,0.75,VWS V14.01,2013-04-08 23:51:00,
2013-04-08 18:52:00,69.6,48.0,29.75,SE,129,0.0,0.0,46,0.00,,OVC048,0.75,VWS V14.01,2013-04-08 23:52:00,
2013-04-08 18:53:00,69.6,48.0,29.75,SE,129,0.0,0.0,46,0.00,,OVC048,0.75,VWS V14.01,2013-04-08 23:53:00,
2013-04-08 18:55:00,69.6,48.0,29.75,SE,129,0.0,0.0,46,0.00,,OVC048,0.75,VWS V14.01,2013-04-08 23:55:00,
2013-04-08 18:57:00,69.6,48.0,29.75,SE,131,0.0,0.0,46,0.00,,OVC048,0.75,VWS V14.01,2013-04-08 23:57:00,
2013-04-08 18:58:00,69.4,47.8,29.75,SE,130,0.0,0.0,46,0.00,,OVC048,0.75,VWS V14.01,2013-04-08 23:58:00,
2013-04-08 19:02:00,69.4,47.8,29.75,SE,131,4.0,4.0,46,0.00,,OVC048,0.75,VWS V14.01,2013-04-09 00:02:00,
2013-04-08 19:03:00,69.4,47.8,29.75,SE,131,2.7,4.0,46,0.00,,OVC048,0.75,VWS V14.01,2013-04-09 00:03:00,
2013-04-08 19:04:00,69.3,47.6,29.75,SE,141,3.6,4.0,46,0.00,,OVC048,0.75,VWS V14.01,2013-04-09 00:04:00,
2013-04-08 19:05:00,69.3,47.6,29.75,SE,139,4.0,4.0,46,0.00,,OVC048,0.75,VWS V14.01,2013-04-09 00:05:00,
2013-04-08 19:08:00,69.3,47.6,29.75,SE,139,2.7,2.7,46,0.00,,OVC048,0.75,VWS V14.01,2013-04-09 00:08:00,
2013-04-08 19:09:00,69.3,47.6,29.75,SE,131,3.6,4.0,46,0.00,,OVC048,0.75,VWS V14.01,2013-04-09 00:09:00,
2013-04-08 19:10:00,69.1,47.5,29.75,SE,131,2.7,4.0,46,0.00,,OVC048,0.75,VWS V14.01,2013-04-09 00:10:00,
2013-04-08 19:13:00,69.1,47.5,29.75,SE,131,0.0,0.0,46,0.00,,OVC048,0.75,VWS V14.01,2013-04-09 00:13:00,
2013-04-08 19:14:00,69.1,47.5,29.75,SE,131,0.0,0.0,46,0.00,,OVC048,0.75,VWS V14.01,2013-04-09 00:14:00,
2013-04-08 19:15:00,68.9,47.3,29.75,SE,131,3.1,3.1,46,0.00,,OVC048,0.75,VWS V14.01,2013-04-09 00:15:00,
2013-04-08 19:16:00,68.9,47.3,29.75,SE,131,2.7,3.1,46,0.00,,OVC048,0.75,VWS V14.01,2013-04-09 00:16:00,
2013-04-08 19:18:00,68.9,48.4,29.75,SE,131,0.0,0.0,48,0.00,,OVC048,0.75,VWS V14.01,2013-04-09 00:18:00,
2013-04-08 19:20:00,68.7,48.3,29.75,SE,131,0.0,0.0,48,0.00,,OVC048,0.75,VWS V14.01,2013-04-09 00:20:00,
2013-04-08 19:22:00,68.5,48.1,29.75,SE,131,0.0,0.0,48,0.00,,OVC048,0.75,VWS V14.01,2013-04-09 00:22:00,
2013-04-08 19:23:00,68.5,48.1,29.75,SE,131,0.0,0.0,48,0.00,,OVC048,0.75,VWS V14.01,2013-04-09 00:23:00,
2013-04-08 19:24:00,68.4,47.9,29.75,SE,131,0.0,0.0,48,0.00,,OVC048,0.75,VWS V14.01,2013-04-09 00:24:00,
2013-04-08 19:26:00,68.4,47.9,29.75,SE,131,0.0,0.0,48,0.00,,OVC048,0.75,VWS V14.01,2013-04-09 00:26:00,
2013-04-08 19:27:00,68.2,47.8,29.75,SE,131,4.5,4.5,48,0.00,,OVC048,0.75,VWS V14.01,2013-04-09 00:27:00,
2013-04-08 19:30:00,68.2,47.8,29.75,SE,131,2.2,2.2,48,0.00,,OVC048,0.75,VWS V14.01,2013-04-09 00:30:00,
2013-04-08 19:31:00,68.0,47.6,29.75,SE,131,0.0,0.0,48,0.00,,OVC048,0.75,VWS V14.01,2013-04-09 00:31:00,
2013-04-08 19:34:00,67.8,48.5,29.75,SE,131,0.0,3.6,50,0.00,,OVC048,0.75,VWS V14.01,2013-04-09 00:34:00,
2013-04-08 19:35:00,67.8,48.5,29.75,SE,131,0.0,0.0,50,0.00,,OVC048,0.75,VWS V14.01,2013-04-09 00:35:00,
2013-04-08 19:36:00,67.6,48.4,29.75,SE,131,0.0,0.0,50,0.00,,OVC048,0.75,VWS V14.01,2013-04-09 00:36:00,
2013-04-08 19:39:00,67.3,48.0,29.75,SE,131,0.0,0.0,50,0.00,,OVC048,0.75,VWS V14.01,2013-04-09 00:39:00,
2013-04-08 19:40:00,67.3,48.0,29.75,SE,131,0.0,0.0,50,0.00,,OVC048,0.75,VWS V14.01,2013-04-09 00:40:00,
2013-04-08 19:42:00,67.1,47.9,29.75,SE,131,0.0,0.0,50,0.00,,OVC048,0.75,VWS V14.01,2013-04-09 00:42:00,
2013-04-08 19:44:00,66.9,48.7,29.75,SE,131,0.0,0.0,52,0.00,,OVC048,0.75,VWS V14.01,2013-04-09 00:44:00,
2013-04-08 19:45:00,66.9,48.7,29.75,SE,131,2.7,3.1,52,0.00,,OVC048,0.75,VWS V14.01,2013-04-09 00:45:00,
2013-04-08 19:47:00,66.7,49.6,29.75,SE,131,0.0,0.0,54,0.00,,OVC048,0.75,VWS V14.01,2013-04-09 00:47:00,
2013-04-08 19:50:00,66.7,49.6,29.75,SE,129,3.1,3.1,54,0.00,,OVC048,0.75,VWS V14.01,2013-04-09 00:50:00,
2013-04-08 19:51:00,66.7,49.6,29.75,SE,128,2.7,3.1,54,0.00,,OVC048,0.75,VWS V14.01,2013-04-09 00:51:00,
2013-04-08 19:52:00,66.7,50.6,29.75,SE,128,0.0,0.0,56,0.00,,OVC048,0.75,VWS V14.01,2013-04-09 00:52:00,
2013-04-08 19:53:00,66.6,50.4,29.75,SE,128,0.0,0.0,56,0.00,,OVC048,0.75,VWS V14.01,2013-04-09 00:53:00,
2013-04-08 19:56:00,66.6,50.4,29.75,SE,128,0.0,2.7,56,0.00,,OVC048,0.75,VWS V14.01,2013-04-09 00:56:00,
2013-04-08 19:58:00,66.4,50.2,29.75,SE,128,0.0,0.0,56,0.00,,OVC048,0.75,VWS V14.01,2013-04-09 00:58:00,
2013-04-08 20:02:00,66.2,50.1,29.75,SE,128,0.0,0.0,56,0.00,,OVC048,0.75,VWS V14.01,2013-04-09 01:02:00,
2013-04-08 20:03:00,66.2,50.1,29.75,SE,128,0.0,0.0,56,0.00,,OVC048,0.75,VWS V14.01,2013-04-09 01:03:00,
2013-04-08 20:05:00,66.0,50.8,29.75,SE,128,0.0,0.0,58,0.00,,OVC048,0.75,VWS V14.01,2013-04-09 01:05:00,
2013-04-08 20:07:00,65.8,51.6,29.75,SE,128,0.0,0.0,60,0.00,,OVC048,0.75,VWS V14.01,2013-04-09 01:07:00,
2013-04-08 20:08:00,65.8,51.6,29.75,SE,128,0.0,0.0,60,0.00,,OVC048,0.75,VWS V14.01,2013-04-09 01:08:00,
2013-04-08 20:11:00,65.7,51.4,29.78,SE,128,0.0,0.0,60,0.00,,OVC048,0.75,VWS V14.01,2013-04-09 01:11:00,
2013-04-08 20:13:00,65.7,51.4,29.78,SE,128,0.0,0.0,60,0.00,,OVC048,0.75,VWS V14.01,2013-04-09 01:13:00,
2013-04-08 20:14:00,65.5,51.2,29.78,SE,128,0.0,0.0,60,0.00,,OVC048,0.75,VWS V14.01,2013-04-09 01:14:00,
2013-04-08 20:17:00,65.5,51.2,29.78,SE,128,0.0,0.0,60,0.00,,OVC048,0.75,VWS V14.01,2013-04-09 01:17:00,
2013-04-08 20:18:00,65.3,52.0,29.78,SE,128,0.0,0.0,62,0.00,,OVC048,0.75,VWS V14.01,2013-04-09 01:18:00,
2013-04-08 20:19:00,65.3,52.0,29.78,SE,128,0.0,0.0,62,0.00,,OVC048,0.75,VWS V14.01,2013-04-09 01:19:00,
2013-04-08 20:20:00,65.1,51.8,29.78,SE,128,0.0,0.0,62,0.00,,OVC048,0.75,VWS V14.01,2013-04-09 01:20:00,
2013-04-08 20:23:00,65.1,52.7,29.78,East,87,0.0,0.0,64,0.00,,OVC048,0.75,VWS V14.01,2013-04-09 01:23:00,
2013-04-08 20:24:00,65.3,53.7,29.78,East,89,0.0,0.0,66,0.00,,OVC048,0.75,VWS V14.01,2013-04-09 01:24:00,
2013-04-08 20:25:00,65.3,53.7,29.78,East,81,3.1,3.1,66,0.00,,OVC048,0.75,VWS V14.01,2013-04-09 01:25:00,
2013-04-08 20:27:00,65.5,53.8,29.78,East,82,3.6,4.0,66,0.00,,OVC048,0.75,VWS V14.01,2013-04-09 01:27:00,
2013-04-08 20:28:00,65.7,54.0,29.78,East,81,3.1,4.9,66,0.00,,OVC048,0.75,VWS V14.01,2013-04-09 01:28:00,
2013-04-08 20:29:00,65.7,54.0,29.78,ENE,76,4.0,4.0,66,0.00,,OVC048,0.75,VWS V14.01,2013-04-09 01:29:00,
2013-04-08 20:32:00,65.8,53.3,29.78,East,84,4.0,4.0,64,0.00,,OVC048,0.75,VWS V14.01,2013-04-09 01:32:00,
2013-04-08 20:33:00,66.0,53.5,29.78,East,80,3.1,4.0,64,0.00,,OVC048,0.75,VWS V14.01,2013-04-09 01:33:00,
2013-04-08 20:34:00,66.0,53.5,29.78,East,95,2.7,4.0,64,0.00,,OVC048,0.75,VWS V14.01,2013-04-09 01:34:00,
2013-04-08 20:37:00,66.0,52.6,29.78,East,85,4.0,4.0,62,0.00,,OVC048,0.75,VWS V14.01,2013-04-09 01:37:00,
2013-04-08 20:38:00,66.2,51.9,29.78,East,91,5.4,5.4,60,0.00,,OVC048,0.75,VWS V14.01,2013-04-09 01:38:00,
2013-04-08 20:40:00,66.2,51.9,29.78,East,88,4.0,4.0,60,0.00,,OVC048,0.75,VWS V14.01,2013-04-09 01:40:00,
2013-04-08 20:41:00,66.2,51.9,29.78,East,83,5.4,5.4,60,0.00,,OVC048,0.75,VWS V14.01,2013-04-09 01:41:00,
2013-04-08 20:42:00,66.2,51.9,29.78,East,83,4.0,5.4,60,0.00,,OVC048,0.75,VWS V14.01,2013-04-09 01:42:00,
2013-04-08 20:43:00,66.2,51.0,29.78,East,81,5.8,5.8,58,0.00,,OVC048,0.75,VWS V14.01,2013-04-09 01:43:00,
2013-04-08 20:47:00,66.0,51.8,29.78,ENE,72,5.4,5.4,60,0.00,,OVC048,0.75,VWS V14.01,2013-04-09 01:47:00,
2013-04-08 20:49:00,66.0,51.8,29.78,ENE,74,3.6,3.6,60,0.00,,OVC048,0.75,VWS V14.01,2013-04-09 01:49:00,
2013-04-08 20:52:00,65.8,51.6,29.78,ENE,74,4.0,4.0,60,0.00,,OVC048,0.75,VWS V14.01,2013-04-09 01:52:00,
2013-04-08 20:53:00,65.7,51.4,29.78,ENE,74,2.7,4.0,60,0.00,,OVC048,0.75,VWS V14.01,2013-04-09 01:53:00,
2013-04-08 20:55:00,65.5,51.2,29.78,ENE,74,4.0,4.0,60,0.00,,OVC048,0.75,VWS V14.01,2013-04-09 01:55:00,
2013-04-08 20:57:00,65.1,50.9,29.78,ENE,74,4.0,4.0,60,0.00,,OVC048,0.75,VWS V14.01,2013-04-09 01:57:00,
2013-04-08 20:58:00,65.1,51.8,29.78,ENE,77,4.9,5.4,62,0.00,,OVC048,0.75,VWS V14.01,2013-04-09 01:58:00,
2013-04-08 21:02:00,64.9,53.3,29.78,ENE,78,4.9,5.4,66,0.00,,OVC048,0.75,VWS V14.01,2013-04-09 02:02:00,
2013-04-08 21:03:00,64.8,53.2,29.78,ENE,78,4.0,4.9,66,0.00,,OVC048,0.75,VWS V14.01,2013-04-09 02:03:00,
2013-04-08 21:04:00,64.8,53.2,29.78,East,81,4.0,4.9,66,0.00,,OVC048,0.75,VWS V14.01,2013-04-09 02:04:00,
2013-04-08 21:05:00,64.8,53.2,29.78,East,79,5.4,5.4,66,0.00,,OVC048,0.75,VWS V14.01,2013-04-09 02:05:00,
2013-04-08 21:07:00,64.8,53.2,29.78,ENE,74,3.6,5.4,66,0.00,,OVC048,0.75,VWS V14.01,2013-04-09 02:07:00,
2013-04-08 21:09:00,64.8,53.2,29.78,ENE,74,5.8,5.8,66,0.00,,OVC048,0.75,VWS V14.01,2013-04-09 02:09:00,
2013-04-08 21:10:00,64.8,53.2,29.78,ENE,72,5.8,6.3,66,0.00,,OVC048,0.75,VWS V14.01,2013-04-09 02:10:00,
2013-04-08 21:12:00,64.8,53.2,29.78,ENE,70,6.3,6.3,66,0.00,,OVC048,0.75,VWS V14.01,2013-04-09 02:12:00,
2013-04-08 21:13:00,64.8,53.2,29.78,East,86,5.4,6.3,66,0.00,,OVC048,0.75,VWS V14.01,2013-04-09 02:13:00,
2013-04-08 21:15:00,64.8,53.2,29.78,ENE,68,6.3,6.3,66,0.00,,OVC048,0.75,VWS V14.01,2013-04-09 02:15:00,
2013-04-08 21:17:00,64.8,53.2,29.78,East,86,3.6,5.8,66,0.00,,OVC048,0.75,VWS V14.01,2013-04-09 02:17:00,
2013-04-08 21:20:00,64.8,53.2,29.78,ENE,75,4.0,5.4,66,0.00,,OVC048,0.75,VWS V14.01,2013-04-09 02:20:00,
2013-04-08 21:21:00,64.8,53.2,29.78,ENE,78,3.6,4.0,66,0.00,,OVC048,0.75,VWS V14.01,2013-04-09 02:21:00,
2013-04-08 21:22:00,64.8,53.2,29.78,ENE,78,5.4,5.4,66,0.00,,OVC048,0.75,VWS V14.01,2013-04-09 02:22:00,
2013-04-08 21:23:00,64.8,53.2,29.78,ENE,74,4.5,5.4,66,0.00,,OVC048,0.75,VWS V14.01,2013-04-09 02:23:00,
2013-04-08 21:25:00,64.8,53.2,29.78,ENE,78,5.4,5.8,66,0.00,,OVC048,0.75,VWS V14.01,2013-04-09 02:25:00,
2013-04-08 21:27:00,64.8,53.2,29.78,ENE,74,5.4,5.4,66,0.00,,OVC048,0.75,VWS V14.01,2013-04-09 02:27:00,
2013-04-08 21:28:00,64.6,53.0,29.78,East,82,5.8,5.8,66,0.00,,OVC048,0.75,VWS V14.01,2013-04-09 02:28:00,
2013-04-08 21:30:00,64.6,53.0,29.78,East,79,5.8,6.3,66,0.00,,OVC048,0.75,VWS V14.01,2013-04-09 02:30:00,
2013-04-08 21:33:00,64.8,53.2,29.78,East,90,6.3,6.3,66,0.00,,OVC048,0.75,VWS V14.01,2013-04-09 02:33:00,
2013-04-08 21:35:00,64.8,53.2,29.78,East,85,5.4,5.8,66,0.00,,OVC048,0.75,VWS V14.01,2013-04-09 02:35:00,
2013-04-08 21:36:00,64.8,53.2,29.78,East,79,5.4,8.1,66,0.00,,OVC048,0.75,VWS V14.01,2013-04-09 02:36:00,
2013-04-08 21:38:00,64.8,53.2,29.78,ENE,72,5.4,5.8,66,0.00,,OVC048,0.75,VWS V14.01,2013-04-09 02:38:00,
2013-04-08 21:39:00,64.8,53.2,29.78,East,83,8.1,8.1,66,0.00,,OVC048,0.75,VWS V14.01,2013-04-09 02:39:00,
2013-04-08 21:41:00,64.9,53.3,29.78,East,80,5.8,9.6,66,0.00,,OVC048,0.75,VWS V14.01,2013-04-09 02:41:00,
2013-04-08 21:42:00,64.9,53.3,29.78,East,100,5.4,5.8,66,0.00,,OVC048,0.75,VWS V14.01,2013-04-09 02:42:00,
2013-04-08 21:44:00,65.1,53.5,29.78,East,87,5.8,6.3,66,0.00,,OVC048,0.75,VWS V14.01,2013-04-09 02:44:00,
2013-04-08 21:46:00,64.9,53.3,29.78,East,81,5.8,6.3,66,0.00,,OVC048,0.75,VWS V14.01,2013-04-09 02:46:00,
2013-04-08 21:48:00,64.9,53.3,29.78,East,90,3.6,7.6,66,0.00,,OVC048,0.75,VWS V14.01,2013-04-09 02:48:00,
2013-04-08 21:49:00,64.9,53.3,29.78,East,92,0.0,3.1,66,0.00,,OVC048,0.75,VWS V14.01,2013-04-09 02:49:00,
2013-04-08 21:50:00,64.9,53.3,29.78,ENE,74,5.4,5.4,66,0.00,,OVC048,0.75,VWS V14.01,2013-04-09 02:50:00,
2013-04-08 21:51:00,64.9,53.3,29.78,ENE,77,4.0,4.0,66,0.00,,OVC048,0.75,VWS V14.01,2013-04-09 02:51:00,
2013-04-08 21:53:00,64.8,53.2,29.78,ENE,75,3.6,7.6,66,0.00,,OVC048,0.75,VWS V14.01,2013-04-09 02:53:00,
2013-04-08 21:55:00,64.8,53.2,29.78,East,85,5.4,5.4,66,0.00,,OVC048,0.75,VWS V14.01,2013-04-09 02:55:00,
2013-04-08 21:58:00,64.6,53.0,29.78,East,81,5.8,6.3,66,0.00,,OVC048,0.75,VWS V14.01,2013-04-09 02:58:00,
2013-04-08 22:00:00,64.6,53.0,29.78,East,83,5.4,5.4,66,0.00,,OVC048,0.75,VWS V14.01,2013-04-09 03:00:00,
2013-04-08 22:04:00,64.6,53.0,29.78,ENE,57,4.0,4.0,66,0.00,,OVC048,0.75,VWS V14.01,2013-04-09 03:04:00,
2013-04-08 22:05:00,64.6,53.0,29.78,East,87,4.0,4.0,66,0.00,,OVC048,0.75,VWS V14.01,2013-04-09 03:05:00,
2013-04-08 22:09:00,64.4,52.8,29.78,East,85,3.1,6.3,66,0.00,,OVC048,0.75,VWS V14.01,2013-04-09 03:09:00,
2013-04-08 22:10:00,64.4,52.8,29.78,East,82,0.0,3.6,66,0.00,,OVC048,0.75,VWS V14.01,2013-04-09 03:10:00,
2013-04-08 22:11:00,64.4,52.8,29.78,East,81,4.9,4.9,66,0.00,,OVC048,0.75,VWS V14.01,2013-04-09 03:11:00,
2013-04-08 22:12:00,64.4,52.8,29.78,ENE,73,3.6,8.1,66,0.00,,OVC048,0.75,VWS V14.01,2013-04-09 03:12:00,
2013-04-08 22:16:00,64.2,53.5,29.78,ENE,76,0.0,2.7,68,0.00,,OVC048,0.75,VWS V14.01,2013-04-09 03:16:00,
2013-04-08 22:17:00,64.2,53.5,29.78,ENE,74,2.2,5.4,68,0.00,,OVC048,0.75,VWS V14.01,2013-04-09 03:17:00,
2013-04-08 22:21:00,64.0,53.3,29.78,East,82,3.6,3.6,68,0.00,,OVC048,0.75,VWS V14.01,2013-04-09 03:21:00,
2013-04-08 22:22:00,64.0,53.3,29.78,East,82,0.0,0.0,68,0.00,,OVC048,0.75,VWS V14.01,2013-04-09 03:22:00,
2013-04-08 22:27:00,64.0,53.3,29.78,East,83,2.2,3.1,68,0.00,,OVC048,0.75,VWS V14.01,2013-04-09 03:27:00,
2013-04-08 22:28:00,64.0,53.3,29.78,East,83,2.7,2.7,68,0.00,,OVC048,0.75,VWS V14.01,2013-04-09 03:28:00,
2013-04-08 22:32:00,64.4,53.6,29.78,ESE,112,2.7,4.0,68,0.00,,OVC048,0.75,VWS V14.01,2013-04-09 03:32:00,
2013-04-08 22:33:00,64.4,53.6,29.78,ESE,113,4.0,4.0,68,0.00,,OVC048,0.75,VWS V14.01,2013-04-09 03:33:00,
2013-04-08 22:35:00,64.4,53.6,29.78,SE,124,5.8,5.8,68,0.00,,OVC048,0.75,VWS V14.01,2013-04-09 03:35:00,
2013-04-08 22:38:00,64.6,53.0,29.78,SE,130,2.7,5.4,66,0.00,,OVC048,0.75,VWS V14.01,2013-04-09 03:38:00,
2013-04-08 22:40:00,64.8,53.2,29.78,SE,125,3.6,3.6,66,0.00,,OVC048,0.75,VWS V14.01,2013-04-09 03:40:00,
2013-04-08 22:41:00,64.8,53.2,29.78,SE,131,6.3,6.3,66,0.00,,OVC048,0.75,VWS V14.01,2013-04-09 03:41:00,
2013-04-08 22:43:00,64.9,53.3,29.78,SE,129,4.0,4.9,66,0.00,,OVC048,0.75,VWS V14.01,2013-04-09 03:43:00,
2013-04-08 22:45:00,64.9,53.3,29.78,ESE,123,4.9,5.4,66,0.00,,OVC048,0.75,VWS V14.01,2013-04-09 03:45:00,
2013-04-08 22:47:00,64.9,53.3,29.78,SE,133,5.8,6.3,66,0.00,,OVC048,0.75,VWS V14.01,2013-04-09 03:47:00,
2013-04-08 22:48:00,64.9,53.3,29.78,SE,130,5.4,5.4,66,0.00,,OVC048,0.75,VWS V14.01,2013-04-09 03:48:00,
2013-04-08 22:50:00,65.1,53.5,29.78,ESE,123,5.4,5.4,66,0.00,,OVC048,0.75,VWS V14.01,2013-04-09 03:50:00,
2013-04-08 22:52:00,65.1,53.5,29.78,SE,125,5.8,6.3,66,0.00,,OVC048,0.75,VWS V14.01,2013-04-09 03:52:00,
2013-04-08 22:55:00,65.1,52.7,29.78,ESE,122,5.8,5.8,64,0.00,,OVC048,0.75,VWS V14.01,2013-04-09 03:55:00,
2013-04-08 22:56:00,65.1,52.7,29.78,SE,124,6.3,8.1,64,0.00,,OVC048,0.75,VWS V14.01,2013-04-09 03:56:00,
2013-04-08 22:57:00,65.1,52.7,29.78,SE,145,5.4,6.3,64,0.00,,OVC048,0.75,VWS V14.01,2013-04-09 03:57:00,
2013-04-08 23:00:00,65.3,52.8,29.78,SE,128,5.4,5.8,64,0.00,,OVC048,0.75,VWS V14.01,2013-04-09 04:00:00,
2013-04-08 23:01:00,65.3,52.8,29.78,SE,146,5.8,5.8,64,0.00,,OVC048,0.75,VWS V14.01,2013-04-09 04:01:00,
2013-04-08 23:05:00,65.3,52.8,29.78,SE,144,5.4,5.8,64,0.00,,OVC048,0.75,VWS V14.01,2013-04-09 04:05:00,
2013-04-08 23:06:00,65.3,52.8,29.78,SE,138,5.4,5.4,64,0.00,,OVC048,0.75,VWS V14.01,2013-04-09 04:06:00,
2013-04-08 23:07:00,65.3,52.8,29.78,ESE,123,5.4,6.7,64,0.00,,OVC048,0.75,VWS V14.01,2013-04-09 04:07:00,
2013-04-08 23:10:00,65.3,52.8,29.81,SSE,155,6.3,6.3,64,0.00,,OVC048,0.75,VWS V14.01,2013-04-09 04:10:00,
2013-04-08 23:11:00,65.3,52.0,29.81,SSE,149,3.1,6.3,62,0.00,,OVC048,0.75,VWS V14.01,2013-04-09 04:11:00,
2013-04-08 23:12:00,65.5,52.1,29.81,SE,129,6.3,6.3,62,0.00,,OVC048,0.75,VWS V14.01,2013-04-09 04:12:00,
2013-04-08 23:15:00,65.5,52.1,29.81,SE,127,6.3,6.3,62,0.00,,OVC048,0.75,VWS V14.01,2013-04-09 04:15:00,
2013-04-08 23:16:00,65.5,52.1,29.81,SE,130,7.2,8.7,62,0.00,,OVC048,0.75,VWS V14.01,2013-04-09 04:16:00,
2013-04-08 23:18:00,65.5,51.2,29.81,SE,140,5.8,5.8,60,0.00,,OVC048,0.75,VWS V14.01,2013-04-09 04:18:00,
2013-04-08 23:20:00,65.7,51.4,29.81,SSE,150,7.6,7.6,60,0.00,,OVC048,0.75,VWS V14.01,2013-04-09 04:20:00,
2013-04-08 23:22:00,65.7,50.5,29.81,SE,139,6.3,6.3,58,0.00,,OVC048,0.75,VWS V14.01,2013-04-09 04:22:00,
2013-04-08 23:23:00,65.7,50.5,29.81,SE,140,6.3,6.3,58,0.00,,OVC048,0.75,VWS V14.01,2013-04-09 04:23:00,
2013-04-08 23:26:00,65.8,50.7,29.78,South,177,6.3,6.3,58,0.00,,OVC048,0.75,VWS V14.01,2013-04-09 04:26:00,
2013-04-08 23:27:00,65.8,49.7,29.78,SE,138,8.3,8.3,56,0.00,,OVC048,0.75,VWS V14.01,2013-04-09 04:27:00,
2013-04-08 23:28:00,65.8,49.7,29.78,SE,135,6.3,8.3,56,0.00,,OVC048,0.75,VWS V14.01,2013-04-09 04:28:00,
2013-04-08 23:31:00,66.0,49.9,29.78,SE,142,5.4,8.7,56,0.00,,OVC048,0.75,VWS V14.01,2013-04-09 04:31:00,
2013-04-08 23:32:00,66.0,49.9,29.78,SSE,147,5.4,5.4,56,0.00,,OVC048,0.75,VWS V14.01,2013-04-09 04:32:00,
2013-04-08 23:33:00,66.0,49.9,29.78,SE,145,5.4,5.8,56,0.00,,OVC048,0.75,VWS V14.01,2013-04-09 04:33:00,
2013-04-08 23:38:00,65.8,49.7,29.78,SE,137,5.8,8.1,56,0.00,,OVC048,0.75,VWS V14.01,2013-04-09 04:38:00,
2013-04-08 23:39:00,65.8,49.7,29.78,SE,141,5.4,7.2,56,0.00,,OVC048,0.75,VWS V14.01,2013-04-09 04:39:00,
2013-04-08 23:43:00,65.8,49.7,29.78,SE,144,5.8,6.7,56,0.00,,OVC048,0.75,VWS V14.01,2013-04-09 04:43:00,
2013-04-08 23:44:00,65.8,48.8,29.78,SSE,155,6.3,6.3,54,0.00,,OVC048,0.75,VWS V14.01,2013-04-09 04:44:00,
2013-04-08 23:45:00,65.8,48.8,29.78,SE,143,6.3,6.3,54,0.00,,OVC048,0.75,VWS V14.01,2013-04-09 04:45:00,
2013-04-08 23:48:00,65.8,48.8,29.78,SE,138,4.9,8.3,54,0.00,,OVC048,0.75,VWS V14.01,2013-04-09 04:48:00,
2013-04-08 23:49:00,65.8,48.8,29.78,SW,226,5.8,8.3,54,0.00,,OVC048,0.75,VWS V14.01,2013-04-09 04:49:00,
2013-04-08 23:50:00,65.8,48.8,29.78,South,182,6.3,6.3,54,0.00,,OVC048,0.75,VWS V14.01,2013-04-09 04:50:00,
2013-04-08 23:53:00,65.8,48.8,29.78,SSE,154,5.8,9.6,54,0.00,,OVC048,0.75,VWS V14.01,2013-04-09 04:53:00,
2013-04-08 23:54:00,65.8,48.8,29.81,SE,142,6.3,6.3,54,0.00,,OVC048,0.75,VWS V14.01,2013-04-09 04:54:00,
2013-04-08 23:55:00,66.0,48.9,29.81,SE,140,7.2,7.2,54,0.00,,OVC048,0.75,VWS V14.01,2013-04-09 04:55:00,
2013-04-08 23:56:00,66.0,48.9,29.81,SE,135,8.3,8.3,54,0.00,,OVC048,0.75,VWS V14.01,2013-04-09 04:56:00,
2013-04-08 23:59:00,66.0,48.9,29.81,SE,141,8.3,8.3,54,0.00,,OVC048,0.75,VWS V14.01,2013-04-09 04:59:00,